KLM871 EHAM-VIDP
Flight info
| Callsign | KLM871 |
|---|---|
| Flight time | 9h 25m |
| Altitude | 33000 |
| Route | EDUPO Z739 MISGO DCT DOJOH DCT DODEN DCT NEGIX DCT DINKU DCT BESNI DCT GOMIG DCT VABEK UL603 OLOTA DCT DISOR DCT MES UL609 RDS DCT VANZA DCT RASDA A16 MERPI/N0483F350 A16 CVO L315 HGD M872 PMA Y214 RAPMA DCT MEVDO DCT ALROK DCT DEBIN DCT MIDGU M440 TULBU N881 RASKI L639 MILUP/N0483F370 L639 LAXOM J61 UUD Q3 BUBNU A347 UKASO UKASO7G |
| Aircraft | B77W/H-SDE1E2E3FGHIJ2J3J4J5M1RWXY/LB1D1 |
Departure
| Time | 2026-05-04 19:40 |
|---|---|
| Airport | Amsterdam Airport Schiphol (EHAM) |
Arrival
| Time | 2026-05-05 05:06 |
|---|---|
| Airport | Indira Gandhi International Airport (VIDP) |
| Time | Latitude | Longitude | Altitude | Speed | Heading |
|---|---|---|---|---|---|
| 2026-05-04 19:23 | 52.31353 | 4.75570 | 4 ft | 0 kts | 86° |
| 2026-05-04 19:31 | 52.31352 | 4.75560 | 4 ft | 2 kts | 86° |
| 2026-05-04 19:31 | 52.31351 | 4.75533 | 4 ft | 2 kts | 84° |
| 2026-05-04 19:32 | 52.31349 | 4.75506 | 5 ft | 2 kts | 82° |
| 2026-05-04 19:32 | 52.31346 | 4.75480 | 6 ft | 2 kts | 74° |
| 2026-05-04 19:32 | 52.31340 | 4.75455 | 7 ft | 2 kts | 35° |
| 2026-05-04 19:32 | 52.31330 | 4.75450 | 7 ft | 0 kts | 358° |
| 2026-05-04 19:34 | 52.31347 | 4.75449 | 6 ft | 6 kts | 357° |
| 2026-05-04 19:35 | 52.31411 | 4.75444 | 4 ft | 10 kts | 357° |
| 2026-05-04 19:35 | 52.31478 | 4.75431 | 4 ft | 10 kts | 333° |
| 2026-05-04 19:35 | 52.31505 | 4.75312 | 3 ft | 16 kts | 271° |
| 2026-05-04 19:35 | 52.31499 | 4.75085 | 4 ft | 21 kts | 268° |
| 2026-05-04 19:36 | 52.31491 | 4.74845 | 4 ft | 21 kts | 266° |
| 2026-05-04 19:36 | 52.31483 | 4.74604 | 4 ft | 21 kts | 267° |
| 2026-05-04 19:36 | 52.31476 | 4.74364 | 4 ft | 21 kts | 267° |
| 2026-05-04 19:36 | 52.31421 | 4.74155 | 4 ft | 21 kts | 210° |
| 2026-05-04 19:37 | 52.31275 | 4.74128 | 4 ft | 21 kts | 182° |
| 2026-05-04 19:37 | 52.31129 | 4.74114 | 4 ft | 21 kts | 183° |
| 2026-05-04 19:37 | 52.30980 | 4.74100 | 4 ft | 21 kts | 183° |
| 2026-05-04 19:37 | 52.30835 | 4.74088 | 4 ft | 21 kts | 183° |
| 2026-05-04 19:38 | 52.30688 | 4.74076 | 4 ft | 21 kts | 184° |
| 2026-05-04 19:38 | 52.30540 | 4.74061 | 4 ft | 21 kts | 184° |
| 2026-05-04 19:38 | 52.30393 | 4.74043 | 4 ft | 21 kts | 191° |
| 2026-05-04 19:38 | 52.30256 | 4.73957 | 4 ft | 21 kts | 209° |
| 2026-05-04 19:39 | 52.30188 | 4.73834 | 3 ft | 11 kts | 261° |
| 2026-05-04 19:39 | 52.30204 | 4.73755 | 2 ft | 7 kts | 324° |
| 2026-05-04 19:39 | 52.30257 | 4.73745 | 1 ft | 14 kts | 2° |
| 2026-05-04 19:39 | 52.30579 | 4.73773 | 1 ft | 80 kts | 3° |
| 2026-05-04 19:40 | 52.31351 | 4.73843 | 2 ft | 140 kts | 3° |
| 2026-05-04 19:40 | 52.32476 | 4.73944 | 14 ft | 184 kts | 2° |
| 2026-05-04 19:40 | 52.33769 | 4.74010 | 519 ft | 183 kts | 3° |
| 2026-05-04 19:40 | 52.35035 | 4.74260 | 1039 ft | 183 kts | 26° |
| 2026-05-04 19:41 | 52.35889 | 4.75716 | 1441 ft | 187 kts | 70° |
| 2026-05-04 19:41 | 52.35939 | 4.77876 | 1782 ft | 201 kts | 94° |
| 2026-05-04 19:41 | 52.35757 | 4.80282 | 1951 ft | 226 kts | 94° |
| 2026-05-04 19:41 | 52.35557 | 4.82953 | 2284 ft | 246 kts | 95° |
| 2026-05-04 19:42 | 52.35339 | 4.85779 | 2889 ft | 254 kts | 96° |
| 2026-05-04 19:42 | 52.35109 | 4.88697 | 3577 ft | 261 kts | 96° |
| 2026-05-04 19:42 | 52.34873 | 4.91655 | 4339 ft | 264 kts | 96° |
| 2026-05-04 19:42 | 52.34635 | 4.94658 | 5103 ft | 268 kts | 96° |
| 2026-05-04 19:43 | 52.34397 | 4.97667 | 5826 ft | 272 kts | 97° |
| 2026-05-04 19:43 | 52.34152 | 5.00747 | 6557 ft | 275 kts | 97° |
| 2026-05-04 19:43 | 52.33903 | 5.03869 | 7255 ft | 278 kts | 97° |
| 2026-05-04 19:43 | 52.33650 | 5.07026 | 7938 ft | 281 kts | 98° |
| 2026-05-04 19:44 | 52.33041 | 5.10044 | 8472 ft | 285 kts | 126° |
| 2026-05-04 19:44 | 52.31747 | 5.12484 | 9025 ft | 286 kts | 134° |
| 2026-05-04 19:44 | 52.30383 | 5.14897 | 9729 ft | 289 kts | 133° |
| 2026-05-04 19:44 | 52.29026 | 5.17337 | 10374 ft | 293 kts | 133° |
| 2026-05-04 19:45 | 52.27617 | 5.19883 | 10609 ft | 314 kts | 133° |
| 2026-05-04 19:45 | 52.26107 | 5.22617 | 10784 ft | 335 kts | 133° |
| 2026-05-04 19:45 | 52.24502 | 5.25552 | 10969 ft | 357 kts | 131° |
| 2026-05-04 19:45 | 52.22962 | 5.28852 | 11357 ft | 372 kts | 126° |
| 2026-05-04 19:46 | 52.21459 | 5.32350 | 11937 ft | 381 kts | 125° |
| 2026-05-04 19:46 | 52.19935 | 5.35924 | 12655 ft | 386 kts | 125° |
| 2026-05-04 19:46 | 52.18396 | 5.39512 | 13433 ft | 390 kts | 125° |
| 2026-05-04 19:46 | 52.16824 | 5.43151 | 14156 ft | 394 kts | 125° |
| 2026-05-04 19:47 | 52.15248 | 5.46777 | 14819 ft | 398 kts | 126° |
| 2026-05-04 19:47 | 52.13640 | 5.50467 | 15492 ft | 402 kts | 126° |
| 2026-05-04 19:47 | 52.12012 | 5.54189 | 16150 ft | 407 kts | 126° |
| 2026-05-04 19:47 | 52.10355 | 5.57974 | 16819 ft | 411 kts | 126° |
| 2026-05-04 19:48 | 52.08683 | 5.61785 | 17478 ft | 415 kts | 126° |
| 2026-05-04 19:48 | 52.06995 | 5.65628 | 18146 ft | 419 kts | 126° |
| 2026-05-04 19:48 | 52.05215 | 5.69418 | 18744 ft | 423 kts | 130° |
| 2026-05-04 19:48 | 52.03279 | 5.73023 | 19396 ft | 424 kts | 131° |
| 2026-05-04 19:49 | 52.01333 | 5.76619 | 20093 ft | 424 kts | 131° |
| 2026-05-04 19:49 | 51.99407 | 5.80208 | 20779 ft | 425 kts | 131° |
| 2026-05-04 19:49 | 51.97474 | 5.83825 | 21376 ft | 427 kts | 131° |
| 2026-05-04 19:49 | 51.95521 | 5.87473 | 21937 ft | 431 kts | 132° |
| 2026-05-04 19:50 | 51.93541 | 5.91158 | 22515 ft | 433 kts | 132° |
| 2026-05-04 19:50 | 51.91555 | 5.94851 | 23102 ft | 435 kts | 132° |
| 2026-05-04 19:50 | 51.89563 | 5.98552 | 23661 ft | 438 kts | 133° |
| 2026-05-04 19:50 | 51.87554 | 6.02278 | 24106 ft | 441 kts | 133° |
| 2026-05-04 19:51 | 51.85543 | 6.06000 | 24504 ft | 444 kts | 133° |
| 2026-05-04 19:51 | 51.83486 | 6.09784 | 24901 ft | 448 kts | 134° |
| 2026-05-04 19:51 | 51.81414 | 6.13571 | 25309 ft | 451 kts | 134° |
| 2026-05-04 19:51 | 51.79321 | 6.17393 | 25728 ft | 454 kts | 134° |
| 2026-05-04 19:52 | 51.77220 | 6.21227 | 26144 ft | 457 kts | 135° |
| 2026-05-04 19:52 | 51.75103 | 6.25090 | 26548 ft | 459 kts | 135° |
| 2026-05-04 19:52 | 51.73000 | 6.28928 | 26928 ft | 462 kts | 135° |
| 2026-05-04 19:52 | 51.70856 | 6.32840 | 27301 ft | 465 kts | 135° |
| 2026-05-04 19:53 | 51.68722 | 6.36731 | 27677 ft | 468 kts | 136° |
| 2026-05-04 19:53 | 51.66557 | 6.40665 | 28046 ft | 469 kts | 136° |
| 2026-05-04 19:53 | 51.64341 | 6.44561 | 28410 ft | 471 kts | 137° |
| 2026-05-04 19:53 | 51.62110 | 6.48384 | 28741 ft | 473 kts | 138° |
| 2026-05-04 19:54 | 51.59821 | 6.52269 | 29081 ft | 475 kts | 139° |
| 2026-05-04 19:54 | 51.57543 | 6.56127 | 29463 ft | 475 kts | 139° |
| 2026-05-04 19:54 | 51.55272 | 6.59984 | 29948 ft | 474 kts | 139° |
| 2026-05-04 19:54 | 51.53032 | 6.63796 | 30386 ft | 471 kts | 139° |
| 2026-05-04 19:55 | 51.50789 | 6.67619 | 30775 ft | 470 kts | 139° |
| 2026-05-04 19:55 | 51.48540 | 6.71449 | 31115 ft | 470 kts | 139° |
| 2026-05-04 19:55 | 51.46311 | 6.75241 | 31447 ft | 469 kts | 139° |
| 2026-05-04 19:55 | 51.44056 | 6.79074 | 31796 ft | 468 kts | 139° |
| 2026-05-04 19:56 | 51.41817 | 6.82873 | 32129 ft | 467 kts | 139° |
| 2026-05-04 19:56 | 51.39612 | 6.86608 | 32470 ft | 466 kts | 139° |
| 2026-05-04 19:56 | 51.37363 | 6.90412 | 32802 ft | 465 kts | 139° |
| 2026-05-04 19:56 | 51.35143 | 6.94158 | 32929 ft | 469 kts | 139° |
| 2026-05-04 19:57 | 51.32888 | 6.97955 | 32968 ft | 470 kts | 139° |
| 2026-05-04 19:57 | 51.28400 | 7.05507 | 32958 ft | 465 kts | 139° |
| 2026-05-04 19:58 | 51.23947 | 7.12979 | 32974 ft | 463 kts | 140° |
| 2026-05-04 19:58 | 51.19509 | 7.20395 | 33003 ft | 463 kts | 140° |
| 2026-05-04 19:59 | 51.15050 | 7.27826 | 32989 ft | 464 kts | 140° |
| 2026-05-04 19:59 | 51.10571 | 7.35268 | 32998 ft | 465 kts | 140° |
| 2026-05-04 20:00 | 51.06101 | 7.42673 | 33000 ft | 466 kts | 140° |
| 2026-05-04 20:00 | 51.01598 | 7.50113 | 33000 ft | 467 kts | 140° |
| 2026-05-04 20:01 | 50.97089 | 7.57539 | 32999 ft | 467 kts | 140° |
| 2026-05-04 20:01 | 50.92577 | 7.64951 | 32992 ft | 467 kts | 140° |
| 2026-05-04 20:02 | 50.88081 | 7.72312 | 32998 ft | 467 kts | 140° |
| 2026-05-04 20:02 | 50.83550 | 7.79709 | 32987 ft | 466 kts | 140° |
| 2026-05-04 20:03 | 50.79052 | 7.87030 | 32994 ft | 466 kts | 140° |
| 2026-05-04 20:03 | 50.74529 | 7.94369 | 32992 ft | 466 kts | 140° |
| 2026-05-04 20:04 | 50.70006 | 8.01688 | 32985 ft | 465 kts | 140° |
| 2026-05-04 20:04 | 50.65478 | 8.08994 | 32995 ft | 465 kts | 139° |
| 2026-05-04 20:05 | 50.60961 | 8.16259 | 32993 ft | 466 kts | 139° |
| 2026-05-04 20:05 | 50.56407 | 8.23564 | 32996 ft | 466 kts | 139° |
| 2026-05-04 20:06 | 50.51887 | 8.30794 | 32990 ft | 466 kts | 139° |
| 2026-05-04 20:06 | 50.47335 | 8.38055 | 32984 ft | 466 kts | 139° |
| 2026-05-04 20:07 | 50.42769 | 8.45317 | 32977 ft | 466 kts | 139° |
| 2026-05-04 20:07 | 50.38224 | 8.52527 | 32984 ft | 466 kts | 139° |
| 2026-05-04 20:08 | 50.33738 | 8.59865 | 32983 ft | 468 kts | 137° |
| 2026-05-04 20:08 | 50.29322 | 8.67322 | 32991 ft | 468 kts | 137° |
| 2026-05-04 20:09 | 50.24882 | 8.74795 | 32987 ft | 469 kts | 137° |
| 2026-05-04 20:09 | 50.20429 | 8.82228 | 32987 ft | 469 kts | 137° |
| 2026-05-04 20:10 | 50.15955 | 8.89655 | 32982 ft | 469 kts | 137° |
| 2026-05-04 20:10 | 50.11469 | 8.97077 | 32986 ft | 469 kts | 137° |
| 2026-05-04 20:11 | 50.06997 | 9.04455 | 32979 ft | 470 kts | 137° |
| 2026-05-04 20:11 | 50.02486 | 9.11878 | 32982 ft | 470 kts | 138° |
| 2026-05-04 20:12 | 49.98011 | 9.19219 | 32978 ft | 471 kts | 138° |
| 2026-05-04 20:12 | 49.93499 | 9.26600 | 32975 ft | 471 kts | 138° |
| 2026-05-04 20:13 | 49.88982 | 9.33972 | 32983 ft | 470 kts | 138° |
| 2026-05-04 20:13 | 49.84481 | 9.41290 | 32982 ft | 470 kts | 137° |
| 2026-05-04 20:14 | 49.79961 | 9.48621 | 32973 ft | 470 kts | 138° |
| 2026-05-04 20:14 | 49.75443 | 9.55926 | 32979 ft | 470 kts | 138° |
| 2026-05-04 20:15 | 49.70914 | 9.63229 | 32977 ft | 470 kts | 138° |
| 2026-05-04 20:15 | 49.66398 | 9.70491 | 32981 ft | 470 kts | 138° |
| 2026-05-04 20:16 | 49.61853 | 9.77776 | 32984 ft | 470 kts | 138° |
| 2026-05-04 20:16 | 49.57342 | 9.84986 | 32982 ft | 470 kts | 138° |
| 2026-05-04 20:17 | 49.52794 | 9.92237 | 33000 ft | 470 kts | 138° |
| 2026-05-04 20:17 | 49.48224 | 9.99502 | 33001 ft | 471 kts | 138° |
| 2026-05-04 20:18 | 49.43659 | 10.06737 | 32995 ft | 471 kts | 138° |
| 2026-05-04 20:18 | 49.39105 | 10.13937 | 32992 ft | 471 kts | 138° |
| 2026-05-04 20:19 | 49.34524 | 10.21157 | 32989 ft | 471 kts | 138° |
| 2026-05-04 20:19 | 49.29964 | 10.28325 | 32972 ft | 471 kts | 138° |
| 2026-05-04 20:20 | 49.25376 | 10.35519 | 32979 ft | 471 kts | 138° |
| 2026-05-04 20:20 | 49.20759 | 10.42632 | 32984 ft | 471 kts | 139° |
| 2026-05-04 20:21 | 49.16047 | 10.49608 | 32983 ft | 471 kts | 139° |
| 2026-05-04 20:21 | 49.09011 | 10.59984 | 32982 ft | 471 kts | 139° |
| 2026-05-04 20:22 | 49.04305 | 10.66938 | 32982 ft | 471 kts | 139° |
| 2026-05-04 20:22 | 49.00396 | 10.72708 | 32990 ft | 470 kts | 139° |
| 2026-05-04 20:23 | 48.95676 | 10.79653 | 32976 ft | 470 kts | 139° |
| 2026-05-04 20:23 | 48.90958 | 10.86575 | 32967 ft | 470 kts | 139° |
| 2026-05-04 20:24 | 48.86248 | 10.93469 | 32948 ft | 470 kts | 139° |
| 2026-05-04 20:24 | 48.81556 | 11.00317 | 32946 ft | 469 kts | 139° |
| 2026-05-04 20:25 | 48.76840 | 11.07181 | 32932 ft | 469 kts | 139° |
| 2026-05-04 20:25 | 48.72145 | 11.13998 | 32941 ft | 469 kts | 139° |
| 2026-05-04 20:26 | 48.67448 | 11.20822 | 32937 ft | 469 kts | 137° |
| 2026-05-04 20:26 | 48.63349 | 11.28583 | 32940 ft | 473 kts | 126° |
| 2026-05-04 20:27 | 48.60175 | 11.37273 | 32944 ft | 475 kts | 119° |
| 2026-05-04 20:27 | 48.57177 | 11.46187 | 32940 ft | 476 kts | 119° |
| 2026-05-04 20:28 | 48.54154 | 11.55083 | 32939 ft | 476 kts | 120° |
| 2026-05-04 20:28 | 48.51115 | 11.63919 | 32937 ft | 476 kts | 120° |
| 2026-05-04 20:29 | 48.48047 | 11.72784 | 32934 ft | 477 kts | 120° |
| 2026-05-04 20:29 | 48.44960 | 11.81668 | 32936 ft | 477 kts | 120° |
| 2026-05-04 20:30 | 48.41883 | 11.90502 | 32952 ft | 477 kts | 120° |
| 2026-05-04 20:30 | 48.38799 | 11.99324 | 32944 ft | 478 kts | 120° |
| 2026-05-04 20:31 | 48.35693 | 12.08181 | 32917 ft | 478 kts | 120° |
| 2026-05-04 20:31 | 48.32578 | 12.17031 | 32930 ft | 478 kts | 120° |
| 2026-05-04 20:32 | 48.29474 | 12.25822 | 32921 ft | 478 kts | 120° |
| 2026-05-04 20:32 | 48.26338 | 12.34676 | 32902 ft | 479 kts | 120° |
| 2026-05-04 20:33 | 48.23201 | 12.43498 | 32900 ft | 479 kts | 121° |
| 2026-05-04 20:33 | 48.20081 | 12.52250 | 32898 ft | 479 kts | 121° |
| 2026-05-04 20:34 | 48.16937 | 12.61041 | 32896 ft | 479 kts | 121° |
| 2026-05-04 20:34 | 48.13661 | 12.69715 | 32895 ft | 477 kts | 126° |
| 2026-05-04 20:35 | 48.09543 | 12.77485 | 32907 ft | 474 kts | 133° |
| 2026-05-04 20:35 | 48.05284 | 12.84953 | 32906 ft | 474 kts | 133° |
| 2026-05-04 20:36 | 48.01015 | 12.92475 | 32915 ft | 475 kts | 133° |
| 2026-05-04 20:36 | 47.96743 | 13.00039 | 32926 ft | 475 kts | 133° |
| 2026-05-04 20:37 | 47.92499 | 13.07552 | 32927 ft | 475 kts | 133° |
| 2026-05-04 20:37 | 47.88210 | 13.15123 | 32935 ft | 476 kts | 133° |
| 2026-05-04 20:38 | 47.83950 | 13.22621 | 32929 ft | 476 kts | 133° |
| 2026-05-04 20:38 | 47.79648 | 13.30171 | 32934 ft | 476 kts | 133° |
| 2026-05-04 20:39 | 47.75350 | 13.37691 | 32916 ft | 477 kts | 133° |
| 2026-05-04 20:39 | 47.71050 | 13.45196 | 32923 ft | 477 kts | 133° |
| 2026-05-04 20:40 | 47.66753 | 13.52671 | 32927 ft | 478 kts | 133° |
| 2026-05-04 20:40 | 47.62432 | 13.60168 | 32931 ft | 479 kts | 133° |
| 2026-05-04 20:41 | 47.58101 | 13.67663 | 32952 ft | 479 kts | 133° |
| 2026-05-04 20:41 | 47.53760 | 13.75152 | 32949 ft | 480 kts | 133° |
| 2026-05-04 20:42 | 47.49410 | 13.82638 | 32963 ft | 480 kts | 133° |
| 2026-05-04 20:42 | 47.45057 | 13.90112 | 32981 ft | 481 kts | 133° |
| 2026-05-04 20:43 | 47.40664 | 13.97627 | 32987 ft | 481 kts | 133° |
| 2026-05-04 20:43 | 47.36290 | 14.05091 | 32992 ft | 482 kts | 133° |
| 2026-05-04 20:44 | 47.31898 | 14.12566 | 33002 ft | 482 kts | 133° |
| 2026-05-04 20:44 | 47.27503 | 14.20026 | 32997 ft | 481 kts | 133° |
| 2026-05-04 20:45 | 47.23131 | 14.27424 | 33010 ft | 481 kts | 133° |
| 2026-05-04 20:45 | 47.18726 | 14.34860 | 33014 ft | 480 kts | 133° |
| 2026-05-04 20:46 | 47.14341 | 14.42240 | 33015 ft | 480 kts | 133° |
| 2026-05-04 20:46 | 47.09928 | 14.49648 | 33026 ft | 480 kts | 133° |
| 2026-05-04 20:47 | 47.05523 | 14.57021 | 33023 ft | 481 kts | 133° |
| 2026-05-04 20:47 | 47.01108 | 14.64393 | 33013 ft | 480 kts | 133° |
| 2026-05-04 20:48 | 46.96711 | 14.71712 | 33024 ft | 480 kts | 133° |
| 2026-05-04 20:48 | 46.92278 | 14.79073 | 33016 ft | 481 kts | 133° |
| 2026-05-04 20:49 | 46.87871 | 14.86370 | 33018 ft | 481 kts | 133° |
| 2026-05-04 20:49 | 46.83422 | 14.93717 | 33014 ft | 481 kts | 133° |
| 2026-05-04 20:50 | 46.78996 | 15.01008 | 33019 ft | 481 kts | 133° |
| 2026-05-04 20:50 | 46.74550 | 15.08309 | 33025 ft | 482 kts | 133° |
| 2026-05-04 20:51 | 46.70075 | 15.15640 | 33014 ft | 482 kts | 133° |
| 2026-05-04 20:51 | 46.65640 | 15.22885 | 33016 ft | 481 kts | 133° |
| 2026-05-04 20:52 | 46.61164 | 15.30179 | 33022 ft | 481 kts | 133° |
| 2026-05-04 20:52 | 46.56709 | 15.37418 | 33011 ft | 481 kts | 133° |
| 2026-05-04 20:53 | 46.52242 | 15.44658 | 33019 ft | 481 kts | 133° |
| 2026-05-04 20:53 | 46.47786 | 15.51861 | 33017 ft | 481 kts | 133° |
| 2026-05-04 20:54 | 46.43320 | 15.59060 | 33029 ft | 481 kts | 133° |
| 2026-05-04 20:54 | 46.38831 | 15.66276 | 33029 ft | 481 kts | 133° |
| 2026-05-04 20:55 | 46.34355 | 15.73453 | 33024 ft | 482 kts | 133° |
| 2026-05-04 20:55 | 46.29855 | 15.80651 | 33027 ft | 482 kts | 133° |
| 2026-05-04 20:56 | 46.25338 | 15.87855 | 33020 ft | 483 kts | 133° |
| 2026-05-04 20:56 | 46.20839 | 15.95013 | 33023 ft | 483 kts | 133° |
| 2026-05-04 20:57 | 46.16320 | 16.02183 | 33027 ft | 484 kts | 133° |
| 2026-05-04 20:57 | 46.11783 | 16.09363 | 33026 ft | 484 kts | 133° |
| 2026-05-04 20:58 | 46.07242 | 16.16529 | 33028 ft | 484 kts | 133° |
| 2026-05-04 20:58 | 46.02686 | 16.23702 | 33037 ft | 485 kts | 133° |
| 2026-05-04 20:59 | 45.98128 | 16.30859 | 33038 ft | 485 kts | 133° |
| 2026-05-04 20:59 | 45.93562 | 16.38008 | 33039 ft | 485 kts | 133° |
| 2026-05-04 21:00 | 45.89005 | 16.45126 | 33041 ft | 485 kts | 133° |
| 2026-05-04 21:00 | 45.84445 | 16.52229 | 33039 ft | 486 kts | 133° |
| 2026-05-04 21:01 | 45.79852 | 16.59365 | 33037 ft | 486 kts | 133° |
| 2026-05-04 21:01 | 45.75256 | 16.66488 | 33033 ft | 487 kts | 133° |
| 2026-05-04 21:02 | 45.70670 | 16.73577 | 33037 ft | 487 kts | 133° |
| 2026-05-04 21:02 | 45.66032 | 16.80725 | 33044 ft | 488 kts | 133° |
| 2026-05-04 21:03 | 45.61430 | 16.87802 | 33043 ft | 489 kts | 133° |
| 2026-05-04 21:03 | 45.56798 | 16.94905 | 33038 ft | 489 kts | 133° |
| 2026-05-04 21:04 | 45.52932 | 17.00820 | 33037 ft | 489 kts | 133° |
| 2026-05-04 21:04 | 45.48278 | 17.07924 | 33039 ft | 489 kts | 133° |
| 2026-05-04 21:05 | 45.43631 | 17.14998 | 33038 ft | 490 kts | 133° |
| 2026-05-04 21:05 | 45.38965 | 17.22082 | 33040 ft | 490 kts | 133° |
| 2026-05-04 21:06 | 45.34291 | 17.29161 | 33042 ft | 491 kts | 133° |
| 2026-05-04 21:06 | 45.29602 | 17.36244 | 33035 ft | 491 kts | 133° |
| 2026-05-04 21:07 | 45.24917 | 17.43303 | 33043 ft | 491 kts | 133° |
| 2026-05-04 21:07 | 45.20246 | 17.50323 | 33043 ft | 492 kts | 133° |
| 2026-05-04 21:08 | 45.15541 | 17.57375 | 33038 ft | 492 kts | 133° |
| 2026-05-04 21:08 | 45.10833 | 17.64415 | 33043 ft | 493 kts | 133° |
| 2026-05-04 21:09 | 45.06130 | 17.71428 | 33043 ft | 493 kts | 133° |
| 2026-05-04 21:09 | 45.01395 | 17.78471 | 33044 ft | 494 kts | 133° |
| 2026-05-04 21:10 | 44.96668 | 17.85484 | 33041 ft | 494 kts | 133° |
| 2026-05-04 21:10 | 44.91917 | 17.92515 | 33041 ft | 495 kts | 133° |
| 2026-05-04 21:11 | 44.87157 | 17.99540 | 33042 ft | 495 kts | 133° |
| 2026-05-04 21:11 | 44.82380 | 18.06573 | 33042 ft | 495 kts | 133° |
| 2026-05-04 21:12 | 44.77629 | 18.13551 | 33047 ft | 495 kts | 133° |
| 2026-05-04 21:12 | 44.72864 | 18.20531 | 33044 ft | 496 kts | 133° |
| 2026-05-04 21:13 | 44.68066 | 18.27541 | 33047 ft | 496 kts | 133° |
| 2026-05-04 21:13 | 44.63299 | 18.34488 | 33051 ft | 496 kts | 133° |
| 2026-05-04 21:14 | 44.58491 | 18.41477 | 33060 ft | 497 kts | 133° |
| 2026-05-04 21:14 | 44.53682 | 18.48450 | 33071 ft | 497 kts | 133° |
| 2026-05-04 21:15 | 44.48860 | 18.55424 | 33077 ft | 497 kts | 133° |
| 2026-05-04 21:15 | 44.44069 | 18.62336 | 33081 ft | 497 kts | 133° |
| 2026-05-04 21:16 | 44.39236 | 18.69291 | 33081 ft | 498 kts | 133° |
| 2026-05-04 21:16 | 44.34397 | 18.76237 | 33081 ft | 498 kts | 133° |
| 2026-05-04 21:17 | 44.29557 | 18.83167 | 33066 ft | 498 kts | 133° |
| 2026-05-04 21:17 | 44.24740 | 18.90047 | 33068 ft | 498 kts | 133° |
| 2026-05-04 21:18 | 44.19893 | 18.96952 | 33070 ft | 498 kts | 133° |
| 2026-05-04 21:18 | 44.15021 | 19.03876 | 33074 ft | 498 kts | 134° |
| 2026-05-04 21:19 | 44.10169 | 19.10752 | 33075 ft | 499 kts | 134° |
| 2026-05-04 21:19 | 44.05316 | 19.17615 | 33080 ft | 499 kts | 133° |
| 2026-05-04 21:20 | 44.00454 | 19.24473 | 33078 ft | 499 kts | 134° |
| 2026-05-04 21:20 | 43.95561 | 19.31359 | 33084 ft | 500 kts | 133° |
| 2026-05-04 21:21 | 43.90700 | 19.38182 | 33093 ft | 499 kts | 134° |
| 2026-05-04 21:21 | 43.85815 | 19.45019 | 33106 ft | 499 kts | 134° |
| 2026-05-04 21:22 | 43.80914 | 19.51865 | 33096 ft | 499 kts | 133° |
| 2026-05-04 21:22 | 43.76015 | 19.58690 | 33118 ft | 499 kts | 133° |
| 2026-05-04 21:23 | 43.71128 | 19.65481 | 33116 ft | 500 kts | 134° |
| 2026-05-04 21:23 | 43.66201 | 19.72311 | 33125 ft | 500 kts | 133° |
| 2026-05-04 21:24 | 43.61308 | 19.79078 | 33135 ft | 500 kts | 133° |
| 2026-05-04 21:24 | 43.56378 | 19.85880 | 33133 ft | 500 kts | 134° |
| 2026-05-04 21:25 | 43.51448 | 19.92663 | 33143 ft | 500 kts | 133° |
| 2026-05-04 21:25 | 43.46543 | 19.99397 | 33141 ft | 500 kts | 133° |
| 2026-05-04 21:26 | 43.41607 | 20.06158 | 33145 ft | 500 kts | 133° |
| 2026-05-04 21:26 | 43.36666 | 20.12907 | 33151 ft | 500 kts | 133° |
| 2026-05-04 21:27 | 43.31746 | 20.19613 | 33155 ft | 501 kts | 134° |
| 2026-05-04 21:27 | 43.26800 | 20.26337 | 33161 ft | 501 kts | 134° |
| 2026-05-04 21:28 | 43.21833 | 20.33074 | 33161 ft | 501 kts | 133° |
| 2026-05-04 21:28 | 43.16902 | 20.39747 | 33164 ft | 500 kts | 134° |
| 2026-05-04 21:29 | 43.11929 | 20.46459 | 33173 ft | 501 kts | 134° |
| 2026-05-04 21:29 | 43.06960 | 20.53152 | 33165 ft | 501 kts | 133° |
| 2026-05-04 21:30 | 43.01993 | 20.59827 | 33169 ft | 502 kts | 134° |
| 2026-05-04 21:30 | 42.96991 | 20.66480 | 33157 ft | 502 kts | 134° |
| 2026-05-04 21:31 | 42.89388 | 20.76382 | 33159 ft | 503 kts | 134° |
| 2026-05-04 21:32 | 42.84337 | 20.82951 | 33159 ft | 503 kts | 134° |
| 2026-05-04 21:32 | 42.79296 | 20.89505 | 33158 ft | 503 kts | 134° |
| 2026-05-04 21:33 | 42.74203 | 20.96116 | 33165 ft | 503 kts | 134° |
| 2026-05-04 21:33 | 42.69139 | 21.02671 | 33158 ft | 503 kts | 134° |
| 2026-05-04 21:34 | 42.64074 | 21.09212 | 33160 ft | 503 kts | 134° |
| 2026-05-04 21:34 | 42.59004 | 21.15744 | 33163 ft | 502 kts | 135° |
| 2026-05-04 21:35 | 42.53923 | 21.22274 | 33160 ft | 502 kts | 135° |
| 2026-05-04 21:35 | 42.48866 | 21.28759 | 33158 ft | 501 kts | 135° |
| 2026-05-04 21:36 | 42.43797 | 21.35244 | 33157 ft | 501 kts | 135° |
| 2026-05-04 21:36 | 42.38732 | 21.41709 | 33147 ft | 501 kts | 135° |
| 2026-05-04 21:37 | 42.33647 | 21.48185 | 33148 ft | 501 kts | 135° |
| 2026-05-04 21:37 | 42.28588 | 21.54614 | 33142 ft | 501 kts | 135° |
| 2026-05-04 21:38 | 42.23515 | 21.61046 | 33140 ft | 501 kts | 135° |
| 2026-05-04 21:38 | 42.18344 | 21.67356 | 33133 ft | 501 kts | 137° |
| 2026-05-04 21:39 | 42.13065 | 21.73515 | 33135 ft | 500 kts | 137° |
| 2026-05-04 21:39 | 42.07828 | 21.79624 | 33131 ft | 499 kts | 137° |
| 2026-05-04 21:40 | 42.02583 | 21.85778 | 33133 ft | 499 kts | 137° |
| 2026-05-04 21:40 | 41.97356 | 21.91917 | 33137 ft | 499 kts | 137° |
| 2026-05-04 21:41 | 41.92131 | 21.98039 | 33114 ft | 498 kts | 137° |
| 2026-05-04 21:41 | 41.86902 | 22.04151 | 33133 ft | 498 kts | 138° |
| 2026-05-04 21:42 | 41.81663 | 22.10258 | 33137 ft | 497 kts | 138° |
| 2026-05-04 21:42 | 41.76473 | 22.16294 | 33139 ft | 497 kts | 138° |
| 2026-05-04 21:43 | 41.71244 | 22.22364 | 33139 ft | 496 kts | 138° |
| 2026-05-04 21:43 | 41.66006 | 22.28429 | 33118 ft | 496 kts | 138° |
| 2026-05-04 21:44 | 41.60795 | 22.34450 | 33137 ft | 495 kts | 138° |
| 2026-05-04 21:44 | 41.55610 | 22.40428 | 33121 ft | 495 kts | 138° |
| 2026-05-04 21:45 | 41.50383 | 22.46440 | 33117 ft | 494 kts | 139° |
| 2026-05-04 21:45 | 41.45173 | 22.52421 | 33117 ft | 493 kts | 139° |
| 2026-05-04 21:46 | 41.39972 | 22.58378 | 33116 ft | 493 kts | 139° |
| 2026-05-04 21:46 | 41.34776 | 22.64316 | 33114 ft | 492 kts | 139° |
| 2026-05-04 21:47 | 41.29597 | 22.70224 | 33110 ft | 491 kts | 139° |
| 2026-05-04 21:47 | 41.24395 | 22.76145 | 33111 ft | 490 kts | 139° |
| 2026-05-04 21:48 | 41.19188 | 22.81969 | 33104 ft | 489 kts | 140° |
| 2026-05-04 21:48 | 41.14837 | 22.86782 | 33106 ft | 489 kts | 140° |
| 2026-05-04 21:49 | 41.09616 | 22.92551 | 33103 ft | 488 kts | 140° |
| 2026-05-04 21:49 | 41.04389 | 22.98327 | 33103 ft | 487 kts | 140° |
| 2026-05-04 21:50 | 40.99204 | 23.04052 | 33104 ft | 487 kts | 140° |
| 2026-05-04 21:50 | 40.93982 | 23.09806 | 33104 ft | 486 kts | 140° |
| 2026-05-04 21:51 | 40.88803 | 23.15499 | 33100 ft | 486 kts | 140° |
| 2026-05-04 21:51 | 40.83609 | 23.21197 | 33102 ft | 485 kts | 140° |
| 2026-05-04 21:52 | 40.78425 | 23.26871 | 33108 ft | 485 kts | 140° |
| 2026-05-04 21:52 | 40.73217 | 23.32561 | 33104 ft | 484 kts | 140° |
| 2026-05-04 21:53 | 40.68036 | 23.38208 | 33103 ft | 484 kts | 140° |
| 2026-05-04 21:53 | 40.62859 | 23.43840 | 33103 ft | 484 kts | 140° |
| 2026-05-04 21:54 | 40.57633 | 23.49513 | 33097 ft | 484 kts | 140° |
| 2026-05-04 21:54 | 40.52454 | 23.55124 | 33100 ft | 485 kts | 140° |
| 2026-05-04 21:55 | 40.47247 | 23.60753 | 33096 ft | 485 kts | 140° |
| 2026-05-04 21:55 | 40.42031 | 23.66380 | 33092 ft | 485 kts | 140° |
| 2026-05-04 21:56 | 40.36808 | 23.72002 | 33097 ft | 484 kts | 140° |
| 2026-05-04 21:56 | 40.31604 | 23.77594 | 33088 ft | 484 kts | 140° |
| 2026-05-04 21:57 | 40.26392 | 23.83182 | 33092 ft | 484 kts | 140° |
| 2026-05-04 21:57 | 40.21176 | 23.88762 | 33093 ft | 484 kts | 140° |
| 2026-05-04 21:58 | 40.15979 | 23.94311 | 33086 ft | 485 kts | 140° |
| 2026-05-04 21:58 | 40.10759 | 23.99874 | 33092 ft | 485 kts | 140° |
| 2026-05-04 21:59 | 40.05504 | 24.05462 | 33090 ft | 485 kts | 140° |
| 2026-05-04 21:59 | 40.00265 | 24.11022 | 33090 ft | 485 kts | 140° |
| 2026-05-04 22:00 | 39.95041 | 24.16554 | 33086 ft | 485 kts | 140° |
| 2026-05-04 22:00 | 39.89790 | 24.22104 | 33085 ft | 485 kts | 140° |
| 2026-05-04 22:01 | 39.84556 | 24.27625 | 33086 ft | 485 kts | 140° |
| 2026-05-04 22:01 | 39.79321 | 24.33134 | 33084 ft | 485 kts | 140° |
| 2026-05-04 22:02 | 39.74091 | 24.38629 | 33080 ft | 483 kts | 140° |
| 2026-05-04 22:02 | 39.68854 | 24.44120 | 33091 ft | 486 kts | 140° |
| 2026-05-04 22:03 | 39.63547 | 24.49672 | 33098 ft | 489 kts | 140° |
| 2026-05-04 22:03 | 39.58264 | 24.55189 | 33086 ft | 490 kts | 140° |
| 2026-05-04 22:04 | 39.52945 | 24.60731 | 33089 ft | 490 kts | 140° |
| 2026-05-04 22:04 | 39.47638 | 24.66250 | 33081 ft | 489 kts | 140° |
| 2026-05-04 22:05 | 39.42341 | 24.71747 | 33090 ft | 488 kts | 140° |
| 2026-05-04 22:05 | 39.37062 | 24.77215 | 33078 ft | 487 kts | 140° |
| 2026-05-04 22:06 | 39.31757 | 24.82699 | 33092 ft | 487 kts | 141° |
| 2026-05-04 22:06 | 39.26497 | 24.88125 | 33090 ft | 487 kts | 141° |
| 2026-05-04 22:07 | 39.21172 | 24.93608 | 33086 ft | 488 kts | 141° |
| 2026-05-04 22:07 | 39.15883 | 24.99043 | 33089 ft | 488 kts | 141° |
| 2026-05-04 22:08 | 39.10558 | 25.04503 | 33096 ft | 489 kts | 141° |
| 2026-05-04 22:08 | 39.05233 | 25.09954 | 33089 ft | 490 kts | 141° |
| 2026-05-04 22:09 | 38.99904 | 25.15397 | 33095 ft | 491 kts | 141° |
| 2026-05-04 22:09 | 38.94561 | 25.20843 | 33087 ft | 491 kts | 141° |
| 2026-05-04 22:10 | 38.89197 | 25.26301 | 33092 ft | 491 kts | 141° |
| 2026-05-04 22:10 | 38.83830 | 25.31750 | 33084 ft | 491 kts | 141° |
| 2026-05-04 22:11 | 38.78493 | 25.37160 | 33088 ft | 491 kts | 141° |
| 2026-05-04 22:11 | 38.73140 | 25.42573 | 33091 ft | 491 kts | 141° |
| 2026-05-04 22:12 | 38.67762 | 25.48002 | 33097 ft | 491 kts | 141° |
| 2026-05-04 22:12 | 38.62390 | 25.53414 | 33094 ft | 491 kts | 141° |
| 2026-05-04 22:13 | 38.57037 | 25.58797 | 33102 ft | 492 kts | 141° |
| 2026-05-04 22:13 | 38.51676 | 25.64177 | 33095 ft | 492 kts | 141° |
| 2026-05-04 22:14 | 38.46290 | 25.69571 | 33104 ft | 493 kts | 141° |
| 2026-05-04 22:14 | 38.40866 | 25.74993 | 33094 ft | 493 kts | 141° |
| 2026-05-04 22:15 | 38.35467 | 25.80381 | 33098 ft | 494 kts | 141° |
| 2026-05-04 22:15 | 38.30060 | 25.85767 | 33098 ft | 494 kts | 141° |
| 2026-05-04 22:16 | 38.24644 | 25.91181 | 33106 ft | 495 kts | 140° |
| 2026-05-04 22:16 | 38.19467 | 25.96878 | 33097 ft | 495 kts | 138° |
| 2026-05-04 22:17 | 38.14270 | 26.02682 | 33081 ft | 496 kts | 138° |
| 2026-05-04 22:17 | 38.09089 | 26.08409 | 33086 ft | 496 kts | 139° |
| 2026-05-04 22:18 | 38.03879 | 26.14141 | 33095 ft | 496 kts | 139° |
| 2026-05-04 22:18 | 37.98666 | 26.19869 | 33090 ft | 496 kts | 139° |
| 2026-05-04 22:19 | 37.93461 | 26.25583 | 33100 ft | 496 kts | 139° |
| 2026-05-04 22:19 | 37.88231 | 26.31313 | 33098 ft | 497 kts | 139° |
| 2026-05-04 22:20 | 37.82993 | 26.37047 | 33093 ft | 497 kts | 138° |
| 2026-05-04 22:20 | 37.77772 | 26.42765 | 33091 ft | 497 kts | 138° |
| 2026-05-04 22:21 | 37.72554 | 26.48474 | 33090 ft | 497 kts | 138° |
| 2026-05-04 22:21 | 37.67298 | 26.54207 | 33086 ft | 498 kts | 138° |
| 2026-05-04 22:22 | 37.62052 | 26.59894 | 33088 ft | 498 kts | 139° |
| 2026-05-04 22:22 | 37.56787 | 26.65587 | 33083 ft | 498 kts | 138° |
| 2026-05-04 22:23 | 37.51543 | 26.71253 | 33082 ft | 498 kts | 138° |
| 2026-05-04 22:23 | 37.46271 | 26.76940 | 33081 ft | 499 kts | 138° |
| 2026-05-04 22:24 | 37.40996 | 26.82620 | 33083 ft | 499 kts | 138° |
| 2026-05-04 22:24 | 37.35882 | 26.88501 | 33078 ft | 498 kts | 135° |
| 2026-05-04 22:25 | 37.30885 | 26.94518 | 33080 ft | 498 kts | 135° |
| 2026-05-04 22:25 | 37.25876 | 27.00542 | 33083 ft | 498 kts | 135° |
| 2026-05-04 22:26 | 37.20866 | 27.06523 | 33074 ft | 498 kts | 135° |
| 2026-05-04 22:26 | 37.15850 | 27.12484 | 33076 ft | 499 kts | 135° |
| 2026-05-04 22:27 | 37.10809 | 27.18461 | 33083 ft | 499 kts | 135° |
| 2026-05-04 22:27 | 37.05749 | 27.24452 | 33072 ft | 500 kts | 135° |
| 2026-05-04 22:28 | 37.00691 | 27.30429 | 33080 ft | 500 kts | 135° |
| 2026-05-04 22:28 | 36.95635 | 27.36393 | 33065 ft | 501 kts | 135° |
| 2026-05-04 22:29 | 36.90555 | 27.42374 | 33069 ft | 501 kts | 135° |
| 2026-05-04 22:29 | 36.85451 | 27.48371 | 33058 ft | 502 kts | 135° |
| 2026-05-04 22:30 | 36.80379 | 27.54319 | 33054 ft | 502 kts | 135° |
| 2026-05-04 22:30 | 36.75289 | 27.60278 | 33053 ft | 503 kts | 135° |
| 2026-05-04 22:31 | 36.70165 | 27.66264 | 33051 ft | 504 kts | 135° |
| 2026-05-04 22:31 | 36.65041 | 27.72239 | 33037 ft | 504 kts | 136° |
| 2026-05-04 22:32 | 36.59943 | 27.78172 | 33039 ft | 505 kts | 136° |
| 2026-05-04 22:32 | 36.54791 | 27.84157 | 33024 ft | 505 kts | 136° |
| 2026-05-04 22:33 | 36.49658 | 27.90109 | 33026 ft | 506 kts | 136° |
| 2026-05-04 22:33 | 36.44494 | 27.96085 | 33024 ft | 506 kts | 136° |
| 2026-05-04 22:34 | 36.39346 | 28.02033 | 33023 ft | 507 kts | 136° |
| 2026-05-04 22:34 | 36.34156 | 28.08019 | 33028 ft | 508 kts | 136° |
| 2026-05-04 22:35 | 36.29945 | 28.13066 | 33030 ft | 508 kts | 134° |
| 2026-05-04 22:35 | 36.24985 | 28.19316 | 33024 ft | 509 kts | 134° |
| 2026-05-04 22:36 | 36.19195 | 28.26613 | 33025 ft | 510 kts | 134° |
| 2026-05-04 22:36 | 36.15015 | 28.31820 | 33030 ft | 511 kts | 135° |
| 2026-05-04 22:37 | 36.09956 | 28.38085 | 33017 ft | 513 kts | 135° |
| 2026-05-04 22:37 | 36.04920 | 28.44303 | 33010 ft | 514 kts | 135° |
| 2026-05-04 22:38 | 35.99851 | 28.50555 | 33016 ft | 516 kts | 135° |
| 2026-05-04 22:38 | 35.94764 | 28.56818 | 33016 ft | 516 kts | 136° |
| 2026-05-04 22:39 | 35.89692 | 28.63053 | 33009 ft | 517 kts | 136° |
| 2026-05-04 22:39 | 35.84563 | 28.69344 | 33003 ft | 517 kts | 136° |
| 2026-05-04 22:40 | 35.79507 | 28.75534 | 33005 ft | 516 kts | 136° |
| 2026-05-04 22:40 | 35.74383 | 28.81796 | 32992 ft | 516 kts | 136° |
| 2026-05-04 22:41 | 35.69306 | 28.87988 | 32995 ft | 515 kts | 137° |
| 2026-05-04 22:41 | 35.64215 | 28.94187 | 32985 ft | 515 kts | 137° |
| 2026-05-04 22:42 | 35.59120 | 29.00376 | 32992 ft | 514 kts | 137° |
| 2026-05-04 22:42 | 35.54038 | 29.06539 | 32983 ft | 514 kts | 137° |
| 2026-05-04 22:43 | 35.48957 | 29.12690 | 32985 ft | 513 kts | 137° |
| 2026-05-04 22:43 | 35.43881 | 29.18823 | 32976 ft | 513 kts | 137° |
| 2026-05-04 22:44 | 35.38770 | 29.24986 | 32979 ft | 513 kts | 138° |
| 2026-05-04 22:44 | 35.33667 | 29.31128 | 32974 ft | 513 kts | 138° |
| 2026-05-04 22:45 | 35.28581 | 29.37239 | 32975 ft | 514 kts | 138° |
| 2026-05-04 22:45 | 35.20933 | 29.46406 | 32976 ft | 515 kts | 139° |
| 2026-05-04 22:46 | 35.15791 | 29.52555 | 32972 ft | 517 kts | 139° |
| 2026-05-04 22:46 | 35.10662 | 29.58678 | 32972 ft | 518 kts | 139° |
| 2026-05-04 22:47 | 35.05500 | 29.64827 | 32969 ft | 519 kts | 139° |
| 2026-05-04 22:47 | 35.00332 | 29.70973 | 32974 ft | 520 kts | 140° |
| 2026-05-04 22:48 | 34.95143 | 29.77134 | 32962 ft | 520 kts | 140° |
| 2026-05-04 22:48 | 34.89958 | 29.83278 | 32972 ft | 521 kts | 140° |
| 2026-05-04 22:49 | 34.84749 | 29.89440 | 32965 ft | 521 kts | 140° |
| 2026-05-04 22:49 | 34.79536 | 29.95584 | 32970 ft | 521 kts | 142° |
| 2026-05-04 22:50 | 34.73844 | 30.00900 | 32978 ft | 511 kts | 154° |
| 2026-05-04 22:50 | 34.67628 | 30.04898 | 32979 ft | 504 kts | 161° |
| 2026-05-04 22:51 | 34.61296 | 30.08513 | 32972 ft | 504 kts | 162° |
| 2026-05-04 22:51 | 34.54937 | 30.12171 | 32974 ft | 504 kts | 162° |
| 2026-05-04 22:52 | 34.48618 | 30.15839 | 32969 ft | 504 kts | 162° |
| 2026-05-04 22:52 | 34.42327 | 30.19498 | 32971 ft | 504 kts | 162° |
| 2026-05-04 22:53 | 34.36013 | 30.23164 | 32969 ft | 503 kts | 162° |
| 2026-05-04 22:53 | 34.29674 | 30.26834 | 32973 ft | 503 kts | 163° |
| 2026-05-04 22:54 | 34.23374 | 30.30476 | 32975 ft | 502 kts | 163° |
| 2026-05-04 22:54 | 34.17071 | 30.34113 | 32978 ft | 502 kts | 163° |
| 2026-05-04 22:55 | 34.10771 | 30.37742 | 32978 ft | 502 kts | 163° |
| 2026-05-04 22:55 | 34.04475 | 30.41363 | 32981 ft | 501 kts | 164° |
| 2026-05-04 22:56 | 33.98178 | 30.44979 | 32981 ft | 501 kts | 164° |
| 2026-05-04 22:56 | 33.91894 | 30.48582 | 32985 ft | 500 kts | 164° |
| 2026-05-04 22:57 | 33.85630 | 30.52167 | 32980 ft | 499 kts | 165° |
| 2026-05-04 22:57 | 33.79349 | 30.55755 | 32980 ft | 499 kts | 165° |
| 2026-05-04 22:58 | 33.73066 | 30.59339 | 32987 ft | 499 kts | 165° |
| 2026-05-04 22:58 | 33.66801 | 30.62908 | 33003 ft | 498 kts | 165° |
| 2026-05-04 22:59 | 33.60551 | 30.66461 | 32996 ft | 498 kts | 165° |
| 2026-05-04 22:59 | 33.54289 | 30.70016 | 32996 ft | 498 kts | 165° |
| 2026-05-04 23:00 | 33.48046 | 30.73555 | 32997 ft | 497 kts | 165° |
| 2026-05-04 23:00 | 33.41794 | 30.77093 | 33005 ft | 497 kts | 166° |
| 2026-05-04 23:01 | 33.35527 | 30.80634 | 33002 ft | 496 kts | 166° |
| 2026-05-04 23:01 | 33.29292 | 30.84150 | 33002 ft | 496 kts | 166° |
| 2026-05-04 23:02 | 33.23069 | 30.87656 | 33005 ft | 496 kts | 166° |
| 2026-05-04 23:02 | 33.16799 | 30.91182 | 33013 ft | 495 kts | 166° |
| 2026-05-04 23:03 | 33.10495 | 30.94207 | 33016 ft | 480 kts | 176° |
| 2026-05-04 23:03 | 33.04066 | 30.95759 | 33019 ft | 462 kts | 186° |
| 2026-05-04 23:04 | 32.97707 | 30.96424 | 33021 ft | 462 kts | 187° |
| 2026-05-04 23:04 | 32.91282 | 30.97097 | 33019 ft | 463 kts | 186° |
| 2026-05-04 23:05 | 32.84860 | 30.97799 | 33022 ft | 465 kts | 186° |
| 2026-05-04 23:05 | 32.78419 | 30.98517 | 33024 ft | 465 kts | 186° |
| 2026-05-04 23:06 | 32.71985 | 30.99234 | 33026 ft | 466 kts | 186° |
| 2026-05-04 23:06 | 32.65536 | 30.99952 | 33030 ft | 466 kts | 186° |
| 2026-05-04 23:07 | 32.59059 | 31.00671 | 33033 ft | 465 kts | 186° |
| 2026-05-04 23:07 | 32.52652 | 31.01381 | 33033 ft | 465 kts | 186° |
| 2026-05-04 23:08 | 32.46189 | 31.02095 | 33050 ft | 464 kts | 186° |
| 2026-05-04 23:08 | 32.39776 | 31.02803 | 33049 ft | 464 kts | 186° |
| 2026-05-04 23:09 | 32.33363 | 31.03510 | 33041 ft | 463 kts | 187° |
| 2026-05-04 23:09 | 32.26927 | 31.04215 | 33397 ft | 466 kts | 186° |
| 2026-05-04 23:10 | 32.23676 | 31.04575 | 33795 ft | 463 kts | 186° |
| 2026-05-04 23:10 | 32.20510 | 31.04926 | 34205 ft | 460 kts | 186° |
| 2026-05-04 23:10 | 32.17318 | 31.05279 | 34519 ft | 459 kts | 186° |
| 2026-05-04 23:10 | 32.14115 | 31.05629 | 34753 ft | 459 kts | 186° |
| 2026-05-04 23:11 | 32.10961 | 31.05972 | 34937 ft | 460 kts | 186° |
| 2026-05-04 23:11 | 32.07745 | 31.06322 | 34986 ft | 463 kts | 186° |
| 2026-05-04 23:11 | 32.01352 | 31.07025 | 35058 ft | 461 kts | 186° |
| 2026-05-04 23:12 | 31.94970 | 31.07726 | 35055 ft | 459 kts | 186° |
| 2026-05-04 23:12 | 31.88647 | 31.08415 | 35054 ft | 457 kts | 186° |
| 2026-05-04 23:13 | 31.82323 | 31.09104 | 35057 ft | 457 kts | 186° |
| 2026-05-04 23:13 | 31.75959 | 31.09796 | 35057 ft | 457 kts | 186° |
| 2026-05-04 23:14 | 31.69626 | 31.10484 | 35065 ft | 457 kts | 186° |
| 2026-05-04 23:14 | 31.63289 | 31.11172 | 35075 ft | 458 kts | 186° |
| 2026-05-04 23:15 | 31.56942 | 31.11861 | 35073 ft | 459 kts | 186° |
| 2026-05-04 23:15 | 31.50553 | 31.12683 | 35075 ft | 465 kts | 182° |
| 2026-05-04 23:16 | 31.44172 | 31.13876 | 35080 ft | 466 kts | 182° |
| 2026-05-04 23:16 | 31.37771 | 31.15085 | 35078 ft | 466 kts | 182° |
| 2026-05-04 23:17 | 31.31368 | 31.16267 | 35076 ft | 466 kts | 182° |
| 2026-05-04 23:17 | 31.24946 | 31.17444 | 35082 ft | 466 kts | 182° |
| 2026-05-04 23:18 | 31.18527 | 31.18635 | 35083 ft | 466 kts | 182° |
| 2026-05-04 23:18 | 31.12152 | 31.19830 | 35085 ft | 466 kts | 182° |
| 2026-05-04 23:19 | 31.06803 | 31.20832 | 35087 ft | 466 kts | 182° |
| 2026-05-04 23:19 | 31.00419 | 31.22024 | 35088 ft | 466 kts | 182° |
| 2026-05-04 23:20 | 30.93985 | 31.23222 | 35085 ft | 466 kts | 182° |
| 2026-05-04 23:20 | 30.87607 | 31.24408 | 35084 ft | 466 kts | 182° |
| 2026-05-04 23:21 | 30.81212 | 31.25596 | 35085 ft | 466 kts | 182° |
| 2026-05-04 23:21 | 30.74778 | 31.26790 | 35104 ft | 466 kts | 182° |
| 2026-05-04 23:22 | 30.68372 | 31.27976 | 35095 ft | 467 kts | 182° |
| 2026-05-04 23:22 | 30.61967 | 31.29162 | 35093 ft | 467 kts | 182° |
| 2026-05-04 23:23 | 30.55520 | 31.30353 | 35090 ft | 468 kts | 182° |
| 2026-05-04 23:23 | 30.49095 | 31.31539 | 35094 ft | 468 kts | 182° |
| 2026-05-04 23:24 | 30.42644 | 31.32724 | 35094 ft | 469 kts | 182° |
| 2026-05-04 23:24 | 30.36216 | 31.33893 | 35091 ft | 469 kts | 182° |
| 2026-05-04 23:25 | 30.29776 | 31.35064 | 35087 ft | 469 kts | 182° |
| 2026-05-04 23:25 | 30.23309 | 31.36240 | 35088 ft | 470 kts | 182° |
| 2026-05-04 23:26 | 30.16867 | 31.37410 | 35100 ft | 470 kts | 182° |
| 2026-05-04 23:26 | 30.10423 | 31.39061 | 35094 ft | 489 kts | 170° |
| 2026-05-04 23:27 | 30.07258 | 31.40667 | 35100 ft | 500 kts | 163° |
| 2026-05-04 23:27 | 30.04279 | 31.42757 | 35095 ft | 513 kts | 154° |
| 2026-05-04 23:27 | 29.98527 | 31.47709 | 35092 ft | 517 kts | 152° |
| 2026-05-04 23:28 | 29.92825 | 31.52725 | 35101 ft | 516 kts | 153° |
| 2026-05-04 23:28 | 29.87060 | 31.57710 | 35100 ft | 515 kts | 153° |
| 2026-05-04 23:29 | 29.81297 | 31.62621 | 35108 ft | 514 kts | 153° |
| 2026-05-04 23:29 | 29.75558 | 31.67489 | 35107 ft | 514 kts | 153° |
| 2026-05-04 23:30 | 29.69824 | 31.72349 | 35112 ft | 513 kts | 153° |
| 2026-05-04 23:30 | 29.64040 | 31.77249 | 35103 ft | 513 kts | 153° |
| 2026-05-04 23:31 | 29.58322 | 31.82088 | 35105 ft | 512 kts | 153° |
| 2026-05-04 23:31 | 29.52583 | 31.86937 | 35116 ft | 511 kts | 153° |
| 2026-05-04 23:32 | 29.46865 | 31.91758 | 35113 ft | 513 kts | 152° |
| 2026-05-04 23:32 | 29.41087 | 31.96625 | 35119 ft | 515 kts | 152° |
| 2026-05-04 23:33 | 29.35307 | 32.01488 | 35108 ft | 516 kts | 152° |
| 2026-05-04 23:33 | 29.29514 | 32.06355 | 35115 ft | 517 kts | 152° |
| 2026-05-04 23:34 | 29.23710 | 32.11225 | 35105 ft | 518 kts | 152° |
| 2026-05-04 23:34 | 29.17900 | 32.16093 | 35106 ft | 517 kts | 153° |
| 2026-05-04 23:35 | 29.12077 | 32.20964 | 35093 ft | 516 kts | 153° |
| 2026-05-04 23:35 | 29.06314 | 32.25779 | 35092 ft | 514 kts | 153° |
| 2026-05-04 23:36 | 29.00538 | 32.30597 | 35087 ft | 512 kts | 153° |
| 2026-05-04 23:36 | 28.94811 | 32.35367 | 35082 ft | 510 kts | 153° |
| 2026-05-04 23:37 | 28.89085 | 32.40129 | 35081 ft | 509 kts | 153° |
| 2026-05-04 23:37 | 28.83326 | 32.44910 | 35069 ft | 509 kts | 153° |
| 2026-05-04 23:38 | 28.77613 | 32.49649 | 35079 ft | 509 kts | 153° |
| 2026-05-04 23:38 | 28.71884 | 32.54395 | 35077 ft | 508 kts | 153° |
| 2026-05-04 23:39 | 28.66175 | 32.59117 | 35073 ft | 507 kts | 153° |
| 2026-05-04 23:39 | 28.60486 | 32.63816 | 35074 ft | 506 kts | 153° |
| 2026-05-04 23:40 | 28.54810 | 32.68498 | 35076 ft | 505 kts | 153° |
| 2026-05-04 23:40 | 28.49087 | 32.73212 | 35070 ft | 505 kts | 153° |
| 2026-05-04 23:41 | 28.43408 | 32.77883 | 35062 ft | 504 kts | 153° |
| 2026-05-04 23:41 | 28.37761 | 32.82523 | 35061 ft | 504 kts | 153° |
| 2026-05-04 23:42 | 28.32062 | 32.87198 | 35057 ft | 503 kts | 153° |
| 2026-05-04 23:42 | 28.26386 | 32.91848 | 35055 ft | 502 kts | 153° |
| 2026-05-04 23:43 | 28.20720 | 32.96485 | 35057 ft | 502 kts | 153° |
| 2026-05-04 23:43 | 28.15061 | 33.01109 | 35051 ft | 502 kts | 153° |
| 2026-05-04 23:44 | 28.09403 | 33.05727 | 35049 ft | 502 kts | 153° |
| 2026-05-04 23:44 | 28.03735 | 33.10348 | 35049 ft | 501 kts | 153° |
| 2026-05-04 23:45 | 27.98072 | 33.14956 | 35041 ft | 501 kts | 153° |
| 2026-05-04 23:45 | 27.92402 | 33.19562 | 35040 ft | 501 kts | 153° |
| 2026-05-04 23:46 | 27.86771 | 33.24133 | 35037 ft | 501 kts | 153° |
| 2026-05-04 23:46 | 27.81094 | 33.28736 | 35028 ft | 501 kts | 152° |
| 2026-05-04 23:47 | 27.75433 | 33.33321 | 35016 ft | 501 kts | 152° |
| 2026-05-04 23:47 | 27.69755 | 33.37914 | 35017 ft | 501 kts | 152° |
| 2026-05-04 23:48 | 27.64095 | 33.42486 | 35014 ft | 501 kts | 153° |
| 2026-05-04 23:48 | 27.58419 | 33.47065 | 35024 ft | 501 kts | 153° |
| 2026-05-04 23:49 | 27.52772 | 33.51615 | 35001 ft | 502 kts | 153° |
| 2026-05-04 23:49 | 27.47050 | 33.56211 | 35006 ft | 503 kts | 153° |
| 2026-05-04 23:50 | 27.41364 | 33.60766 | 35011 ft | 502 kts | 153° |
| 2026-05-04 23:50 | 27.35679 | 33.65317 | 34998 ft | 502 kts | 153° |
| 2026-05-04 23:51 | 27.29981 | 33.69875 | 34994 ft | 502 kts | 153° |
| 2026-05-04 23:51 | 27.24286 | 33.74425 | 34991 ft | 502 kts | 153° |
| 2026-05-04 23:52 | 27.18928 | 33.79541 | 34986 ft | 519 kts | 137° |
| 2026-05-04 23:52 | 27.15075 | 33.86561 | 34995 ft | 538 kts | 117° |
| 2026-05-04 23:53 | 27.12389 | 33.94421 | 34991 ft | 541 kts | 116° |
| 2026-05-04 23:53 | 27.09708 | 34.02306 | 34992 ft | 541 kts | 117° |
| 2026-05-04 23:54 | 27.06920 | 34.10144 | 34988 ft | 542 kts | 117° |
| 2026-05-04 23:54 | 27.04109 | 34.17952 | 34980 ft | 542 kts | 117° |
| 2026-05-04 23:55 | 27.01285 | 34.25826 | 34975 ft | 541 kts | 117° |
| 2026-05-04 23:56 | 26.97102 | 34.37497 | 34971 ft | 539 kts | 117° |
| 2026-05-04 23:56 | 26.94306 | 34.45286 | 34964 ft | 538 kts | 118° |
| 2026-05-04 23:57 | 26.91493 | 34.53101 | 34961 ft | 537 kts | 118° |
| 2026-05-04 23:57 | 26.88695 | 34.60857 | 34959 ft | 537 kts | 118° |
| 2026-05-04 23:58 | 26.85896 | 34.68604 | 34956 ft | 537 kts | 118° |
| 2026-05-04 23:58 | 26.83104 | 34.76312 | 34952 ft | 537 kts | 118° |
| 2026-05-04 23:59 | 26.80286 | 34.84083 | 34950 ft | 537 kts | 118° |
| 2026-05-04 23:59 | 26.77463 | 34.91850 | 34962 ft | 538 kts | 118° |
| 2026-05-05 00:00 | 26.74636 | 34.99593 | 34946 ft | 538 kts | 118° |
| 2026-05-05 00:00 | 26.71805 | 35.07311 | 34942 ft | 539 kts | 118° |
| 2026-05-05 00:01 | 26.68941 | 35.15109 | 34935 ft | 539 kts | 118° |
| 2026-05-05 00:01 | 26.66096 | 35.22847 | 34933 ft | 539 kts | 118° |
| 2026-05-05 00:02 | 26.63246 | 35.30583 | 34923 ft | 539 kts | 118° |
| 2026-05-05 00:02 | 26.60390 | 35.38322 | 34926 ft | 539 kts | 119° |
| 2026-05-05 00:03 | 26.57530 | 35.46056 | 34926 ft | 539 kts | 119° |
| 2026-05-05 00:03 | 26.54618 | 35.53829 | 34920 ft | 538 kts | 120° |
| 2026-05-05 00:04 | 26.52180 | 35.60181 | 34918 ft | 538 kts | 120° |
| 2026-05-05 00:04 | 26.49218 | 35.67872 | 34917 ft | 538 kts | 120° |
| 2026-05-05 00:05 | 26.46271 | 35.75540 | 34917 ft | 538 kts | 120° |
| 2026-05-05 00:05 | 26.42828 | 35.84503 | 34909 ft | 538 kts | 120° |
| 2026-05-05 00:06 | 26.40380 | 35.90864 | 34912 ft | 538 kts | 120° |
| 2026-05-05 00:06 | 26.37420 | 35.98540 | 34914 ft | 538 kts | 120° |
| 2026-05-05 00:07 | 26.34451 | 36.06222 | 34910 ft | 538 kts | 120° |
| 2026-05-05 00:07 | 26.31475 | 36.13909 | 34913 ft | 538 kts | 120° |
| 2026-05-05 00:08 | 26.28520 | 36.21527 | 34913 ft | 539 kts | 120° |
| 2026-05-05 00:08 | 26.25528 | 36.29228 | 34912 ft | 539 kts | 120° |
| 2026-05-05 00:09 | 26.22561 | 36.36851 | 34911 ft | 539 kts | 120° |
| 2026-05-05 00:09 | 26.19583 | 36.44489 | 34908 ft | 539 kts | 121° |
| 2026-05-05 00:10 | 26.16396 | 36.52067 | 34913 ft | 533 kts | 126° |
| 2026-05-05 00:10 | 26.12820 | 36.59286 | 34911 ft | 532 kts | 127° |
| 2026-05-05 00:11 | 26.09233 | 36.66444 | 34913 ft | 533 kts | 127° |
| 2026-05-05 00:11 | 26.05638 | 36.73696 | 34919 ft | 533 kts | 127° |
| 2026-05-05 00:12 | 26.02074 | 36.80925 | 34922 ft | 533 kts | 127° |
| 2026-05-05 00:12 | 25.98509 | 36.88146 | 34920 ft | 533 kts | 127° |
| 2026-05-05 00:13 | 25.94957 | 36.95320 | 34921 ft | 532 kts | 127° |
| 2026-05-05 00:13 | 25.91368 | 37.02555 | 34937 ft | 531 kts | 127° |
| 2026-05-05 00:14 | 25.87804 | 37.09728 | 34913 ft | 531 kts | 127° |
| 2026-05-05 00:14 | 25.84245 | 37.16882 | 34924 ft | 531 kts | 127° |
| 2026-05-05 00:15 | 25.80673 | 37.24050 | 34920 ft | 531 kts | 127° |
| 2026-05-05 00:15 | 25.77085 | 37.31250 | 34920 ft | 530 kts | 127° |
| 2026-05-05 00:16 | 25.73523 | 37.38400 | 34926 ft | 529 kts | 127° |
| 2026-05-05 00:16 | 25.69963 | 37.45540 | 34936 ft | 529 kts | 127° |
| 2026-05-05 00:17 | 25.66410 | 37.52650 | 34941 ft | 529 kts | 127° |
| 2026-05-05 00:17 | 25.62844 | 37.59774 | 34946 ft | 530 kts | 127° |
| 2026-05-05 00:18 | 25.59267 | 37.66909 | 34933 ft | 531 kts | 127° |
| 2026-05-05 00:18 | 25.55661 | 37.74093 | 34923 ft | 531 kts | 127° |
| 2026-05-05 00:19 | 25.52074 | 37.81227 | 34929 ft | 530 kts | 127° |
| 2026-05-05 00:19 | 25.48494 | 37.88336 | 34917 ft | 530 kts | 127° |
| 2026-05-05 00:20 | 25.44898 | 37.95465 | 34920 ft | 529 kts | 128° |
| 2026-05-05 00:20 | 25.41308 | 38.02571 | 34903 ft | 529 kts | 128° |
| 2026-05-05 00:21 | 25.37720 | 38.09664 | 34912 ft | 529 kts | 128° |
| 2026-05-05 00:21 | 25.34128 | 38.16751 | 34918 ft | 531 kts | 128° |
| 2026-05-05 00:22 | 25.30508 | 38.23882 | 34901 ft | 531 kts | 128° |
| 2026-05-05 00:22 | 25.26888 | 38.31008 | 34898 ft | 530 kts | 128° |
| 2026-05-05 00:23 | 25.23271 | 38.38116 | 34913 ft | 529 kts | 128° |
| 2026-05-05 00:23 | 25.19666 | 38.45186 | 34923 ft | 528 kts | 128° |
| 2026-05-05 00:24 | 25.16059 | 38.52252 | 34917 ft | 527 kts | 128° |
| 2026-05-05 00:24 | 25.12468 | 38.59277 | 34915 ft | 527 kts | 128° |
| 2026-05-05 00:25 | 25.08856 | 38.66337 | 34924 ft | 527 kts | 128° |
| 2026-05-05 00:25 | 25.05257 | 38.73360 | 34921 ft | 527 kts | 128° |
| 2026-05-05 00:26 | 25.01642 | 38.80409 | 34927 ft | 526 kts | 128° |
| 2026-05-05 00:26 | 24.98052 | 38.87398 | 34944 ft | 525 kts | 128° |
| 2026-05-05 00:27 | 24.94432 | 38.94420 | 34934 ft | 524 kts | 128° |
| 2026-05-05 00:27 | 24.90822 | 39.01371 | 34944 ft | 524 kts | 128° |
| 2026-05-05 00:28 | 24.87194 | 39.08346 | 34955 ft | 525 kts | 128° |
| 2026-05-05 00:28 | 24.83570 | 39.15313 | 34947 ft | 526 kts | 128° |
| 2026-05-05 00:29 | 24.79930 | 39.22301 | 34948 ft | 527 kts | 128° |
| 2026-05-05 00:29 | 24.76272 | 39.29312 | 34955 ft | 528 kts | 128° |
| 2026-05-05 00:30 | 24.72625 | 39.36299 | 34946 ft | 529 kts | 128° |
| 2026-05-05 00:30 | 24.68958 | 39.43316 | 34954 ft | 530 kts | 128° |
| 2026-05-05 00:31 | 24.65279 | 39.50346 | 34959 ft | 530 kts | 128° |
| 2026-05-05 00:31 | 24.61581 | 39.57398 | 34986 ft | 531 kts | 128° |
| 2026-05-05 00:32 | 24.57888 | 39.64439 | 34954 ft | 533 kts | 127° |
| 2026-05-05 00:32 | 24.55009 | 39.72012 | 34960 ft | 548 kts | 113° |
| 2026-05-05 00:33 | 24.53578 | 39.80295 | 34970 ft | 557 kts | 101° |
| 2026-05-05 00:33 | 24.52853 | 39.88764 | 34957 ft | 557 kts | 100° |
| 2026-05-05 00:34 | 24.52133 | 39.97257 | 34967 ft | 556 kts | 101° |
| 2026-05-05 00:34 | 24.51350 | 40.05641 | 34970 ft | 555 kts | 101° |
| 2026-05-05 00:35 | 24.50521 | 40.14094 | 34960 ft | 554 kts | 101° |
| 2026-05-05 00:35 | 24.49691 | 40.22515 | 34967 ft | 554 kts | 101° |
| 2026-05-05 00:36 | 24.48864 | 40.30917 | 34966 ft | 554 kts | 101° |
| 2026-05-05 00:36 | 24.48035 | 40.39316 | 34966 ft | 553 kts | 101° |
| 2026-05-05 00:37 | 24.47200 | 40.47723 | 34971 ft | 553 kts | 101° |
| 2026-05-05 00:37 | 24.46362 | 40.56115 | 34968 ft | 553 kts | 102° |
| 2026-05-05 00:38 | 24.45522 | 40.64480 | 34971 ft | 553 kts | 102° |
| 2026-05-05 00:38 | 24.44672 | 40.72897 | 34973 ft | 553 kts | 102° |
| 2026-05-05 00:39 | 24.43820 | 40.81284 | 34981 ft | 553 kts | 102° |
| 2026-05-05 00:39 | 24.42963 | 40.89671 | 34977 ft | 553 kts | 102° |
| 2026-05-05 00:40 | 24.42103 | 40.98046 | 34969 ft | 553 kts | 102° |
| 2026-05-05 00:40 | 24.41241 | 41.06402 | 34983 ft | 553 kts | 102° |
| 2026-05-05 00:41 | 24.40362 | 41.14813 | 34979 ft | 553 kts | 102° |
| 2026-05-05 00:41 | 24.39475 | 41.23204 | 34985 ft | 553 kts | 102° |
| 2026-05-05 00:42 | 24.38585 | 41.31586 | 34978 ft | 553 kts | 102° |
| 2026-05-05 00:42 | 24.37691 | 41.39972 | 34981 ft | 554 kts | 102° |
| 2026-05-05 00:43 | 24.36797 | 41.48324 | 34984 ft | 554 kts | 102° |
| 2026-05-05 00:43 | 24.35893 | 41.56725 | 34987 ft | 554 kts | 102° |
| 2026-05-05 00:44 | 24.34984 | 41.65127 | 34987 ft | 554 kts | 102° |
| 2026-05-05 00:44 | 24.34072 | 41.73511 | 34986 ft | 554 kts | 102° |
| 2026-05-05 00:45 | 24.33097 | 41.81872 | 34977 ft | 552 kts | 105° |
| 2026-05-05 00:45 | 24.31233 | 41.90004 | 34981 ft | 545 kts | 112° |
| 2026-05-05 00:46 | 24.29060 | 41.97944 | 34980 ft | 544 kts | 113° |
| 2026-05-05 00:46 | 24.26907 | 42.05908 | 34974 ft | 545 kts | 112° |
| 2026-05-05 00:47 | 24.24807 | 42.13831 | 34972 ft | 544 kts | 112° |
| 2026-05-05 00:47 | 24.22702 | 42.21803 | 34978 ft | 544 kts | 112° |
| 2026-05-05 00:48 | 24.20597 | 42.29750 | 34975 ft | 544 kts | 112° |
| 2026-05-05 00:48 | 24.18833 | 42.36384 | 34973 ft | 543 kts | 112° |
| 2026-05-05 00:49 | 24.16711 | 42.44341 | 34981 ft | 543 kts | 112° |
| 2026-05-05 00:49 | 24.14595 | 42.52257 | 34977 ft | 543 kts | 112° |
| 2026-05-05 00:50 | 24.12476 | 42.60172 | 34980 ft | 542 kts | 112° |
| 2026-05-05 00:50 | 24.10350 | 42.68097 | 34978 ft | 542 kts | 112° |
| 2026-05-05 00:51 | 24.08225 | 42.75998 | 34979 ft | 542 kts | 112° |
| 2026-05-05 00:51 | 24.06088 | 42.83928 | 34984 ft | 541 kts | 112° |
| 2026-05-05 00:52 | 24.03950 | 42.91843 | 34981 ft | 541 kts | 112° |
| 2026-05-05 00:52 | 24.01825 | 42.99700 | 34980 ft | 541 kts | 112° |
| 2026-05-05 00:53 | 23.99695 | 43.07568 | 34982 ft | 541 kts | 112° |
| 2026-05-05 00:53 | 23.97546 | 43.15490 | 34973 ft | 540 kts | 112° |
| 2026-05-05 00:54 | 23.95403 | 43.23368 | 34987 ft | 540 kts | 112° |
| 2026-05-05 00:54 | 23.93267 | 43.31205 | 34984 ft | 540 kts | 112° |
| 2026-05-05 00:55 | 23.91116 | 43.39081 | 34970 ft | 540 kts | 112° |
| 2026-05-05 00:55 | 23.88975 | 43.46900 | 34974 ft | 539 kts | 112° |
| 2026-05-05 00:56 | 23.86815 | 43.54772 | 34967 ft | 539 kts | 112° |
| 2026-05-05 00:56 | 23.84662 | 43.62603 | 34961 ft | 539 kts | 112° |
| 2026-05-05 00:57 | 23.82510 | 43.70416 | 34957 ft | 538 kts | 112° |
| 2026-05-05 00:57 | 23.80343 | 43.78267 | 34945 ft | 538 kts | 111° |
| 2026-05-05 00:58 | 23.78202 | 43.86086 | 34939 ft | 539 kts | 109° |
| 2026-05-05 00:58 | 23.76871 | 43.94158 | 34928 ft | 546 kts | 98° |
| 2026-05-05 00:59 | 23.76313 | 44.02446 | 34936 ft | 546 kts | 97° |
| 2026-05-05 00:59 | 23.75769 | 44.10695 | 34927 ft | 546 kts | 97° |
| 2026-05-05 01:00 | 23.75169 | 44.18936 | 34926 ft | 546 kts | 98° |
| 2026-05-05 01:00 | 23.74539 | 44.27189 | 34925 ft | 546 kts | 98° |
| 2026-05-05 01:01 | 23.73903 | 44.35452 | 34921 ft | 546 kts | 98° |
| 2026-05-05 01:01 | 23.73268 | 44.43705 | 34925 ft | 546 kts | 98° |
| 2026-05-05 01:02 | 23.72629 | 44.51975 | 34919 ft | 546 kts | 98° |
| 2026-05-05 01:02 | 23.71987 | 44.60231 | 34925 ft | 545 kts | 98° |
| 2026-05-05 01:03 | 23.71340 | 44.68474 | 34915 ft | 545 kts | 98° |
| 2026-05-05 01:03 | 23.70691 | 44.76692 | 34914 ft | 545 kts | 98° |
| 2026-05-05 01:04 | 23.70038 | 44.84927 | 34909 ft | 544 kts | 98° |
| 2026-05-05 01:04 | 23.69049 | 44.97223 | 34902 ft | 543 kts | 98° |
| 2026-05-05 01:05 | 23.68381 | 45.05441 | 34897 ft | 542 kts | 98° |
| 2026-05-05 01:05 | 23.67712 | 45.13643 | 34889 ft | 542 kts | 98° |
| 2026-05-05 01:06 | 23.67041 | 45.21812 | 34888 ft | 542 kts | 98° |
| 2026-05-05 01:06 | 23.66365 | 45.30009 | 34884 ft | 541 kts | 98° |
| 2026-05-05 01:07 | 23.65692 | 45.38143 | 34880 ft | 541 kts | 98° |
| 2026-05-05 01:07 | 23.65011 | 45.46325 | 34879 ft | 540 kts | 98° |
| 2026-05-05 01:08 | 23.64327 | 45.54476 | 34868 ft | 540 kts | 98° |
| 2026-05-05 01:08 | 23.63642 | 45.62602 | 34865 ft | 539 kts | 98° |
| 2026-05-05 01:09 | 23.62951 | 45.70746 | 34869 ft | 538 kts | 98° |
| 2026-05-05 01:09 | 23.62259 | 45.78867 | 34868 ft | 538 kts | 98° |
| 2026-05-05 01:10 | 23.61560 | 45.87020 | 34865 ft | 537 kts | 98° |
| 2026-05-05 01:10 | 23.60863 | 45.95107 | 34867 ft | 536 kts | 98° |
| 2026-05-05 01:11 | 23.60164 | 46.03164 | 34868 ft | 535 kts | 98° |
| 2026-05-05 01:11 | 23.59455 | 46.11276 | 34874 ft | 535 kts | 98° |
| 2026-05-05 01:12 | 23.58749 | 46.19314 | 34887 ft | 534 kts | 98° |
| 2026-05-05 01:12 | 23.58034 | 46.27410 | 34881 ft | 534 kts | 98° |
| 2026-05-05 01:13 | 23.57322 | 46.35424 | 34885 ft | 533 kts | 98° |
| 2026-05-05 01:13 | 23.56712 | 46.42248 | 34887 ft | 532 kts | 98° |
| 2026-05-05 01:14 | 23.55994 | 46.50253 | 34894 ft | 531 kts | 98° |
| 2026-05-05 01:14 | 23.55266 | 46.58263 | 34893 ft | 529 kts | 98° |
| 2026-05-05 01:15 | 23.54533 | 46.66200 | 34891 ft | 528 kts | 98° |
| 2026-05-05 01:15 | 23.53792 | 46.74182 | 34895 ft | 527 kts | 98° |
| 2026-05-05 01:16 | 23.53052 | 46.82125 | 34886 ft | 527 kts | 98° |
| 2026-05-05 01:16 | 23.52310 | 46.90050 | 34878 ft | 527 kts | 98° |
| 2026-05-05 01:17 | 23.51563 | 46.97985 | 34879 ft | 526 kts | 98° |
| 2026-05-05 01:17 | 23.50812 | 47.05916 | 34873 ft | 526 kts | 98° |
| 2026-05-05 01:18 | 23.50057 | 47.13858 | 34870 ft | 527 kts | 98° |
| 2026-05-05 01:18 | 23.49301 | 47.21754 | 34863 ft | 527 kts | 98° |
| 2026-05-05 01:19 | 23.48531 | 47.29753 | 34863 ft | 528 kts | 98° |
| 2026-05-05 01:19 | 23.47764 | 47.37695 | 34858 ft | 528 kts | 98° |
| 2026-05-05 01:20 | 23.46990 | 47.45656 | 34858 ft | 528 kts | 98° |
| 2026-05-05 01:20 | 23.46214 | 47.53602 | 34856 ft | 528 kts | 98° |
| 2026-05-05 01:21 | 23.45442 | 47.61522 | 34850 ft | 528 kts | 98° |
| 2026-05-05 01:21 | 23.44666 | 47.69476 | 34844 ft | 528 kts | 98° |
| 2026-05-05 01:22 | 23.43883 | 47.77456 | 34844 ft | 528 kts | 98° |
| 2026-05-05 01:22 | 23.43097 | 47.85416 | 34836 ft | 528 kts | 98° |
| 2026-05-05 01:23 | 23.42310 | 47.93338 | 34839 ft | 528 kts | 98° |
| 2026-05-05 01:23 | 23.41514 | 48.01311 | 34825 ft | 528 kts | 98° |
| 2026-05-05 01:24 | 23.40721 | 48.09223 | 34819 ft | 528 kts | 98° |
| 2026-05-05 01:24 | 23.39915 | 48.17223 | 34816 ft | 528 kts | 98° |
| 2026-05-05 01:25 | 23.39113 | 48.25136 | 34810 ft | 528 kts | 98° |
| 2026-05-05 01:25 | 23.37746 | 48.32946 | 34805 ft | 523 kts | 111° |
| 2026-05-05 01:26 | 23.34826 | 48.40134 | 34799 ft | 516 kts | 126° |
| 2026-05-05 01:26 | 23.30955 | 48.46688 | 34803 ft | 514 kts | 127° |
| 2026-05-05 01:27 | 23.27040 | 48.53201 | 34803 ft | 515 kts | 127° |
| 2026-05-05 01:27 | 23.23174 | 48.59723 | 34801 ft | 515 kts | 127° |
| 2026-05-05 01:28 | 23.19324 | 48.66276 | 34801 ft | 515 kts | 126° |
| 2026-05-05 01:28 | 23.15464 | 48.72851 | 34798 ft | 515 kts | 126° |
| 2026-05-05 01:29 | 23.11597 | 48.79423 | 34800 ft | 514 kts | 126° |
| 2026-05-05 01:29 | 23.07754 | 48.85940 | 34797 ft | 514 kts | 126° |
| 2026-05-05 01:30 | 23.03909 | 48.92454 | 34796 ft | 513 kts | 126° |
| 2026-05-05 01:30 | 23.00060 | 48.98964 | 34803 ft | 513 kts | 126° |
| 2026-05-05 01:31 | 22.96845 | 49.04397 | 34789 ft | 512 kts | 126° |
| 2026-05-05 01:31 | 22.92990 | 49.10903 | 34792 ft | 512 kts | 126° |
| 2026-05-05 01:32 | 22.89128 | 49.17415 | 34806 ft | 511 kts | 126° |
| 2026-05-05 01:32 | 22.85282 | 49.23889 | 34789 ft | 511 kts | 126° |
| 2026-05-05 01:33 | 22.81446 | 49.30340 | 34788 ft | 511 kts | 126° |
| 2026-05-05 01:33 | 22.77588 | 49.36819 | 34794 ft | 510 kts | 126° |
| 2026-05-05 01:34 | 22.73748 | 49.43260 | 34800 ft | 510 kts | 126° |
| 2026-05-05 01:34 | 22.69888 | 49.49728 | 34795 ft | 509 kts | 126° |
| 2026-05-05 01:35 | 22.66049 | 49.56152 | 34797 ft | 509 kts | 126° |
| 2026-05-05 01:35 | 22.62202 | 49.62581 | 34798 ft | 509 kts | 126° |
| 2026-05-05 01:36 | 22.58356 | 49.69004 | 34793 ft | 508 kts | 126° |
| 2026-05-05 01:36 | 22.54749 | 49.75564 | 34794 ft | 512 kts | 118° |
| 2026-05-05 01:37 | 22.52228 | 49.82797 | 34800 ft | 516 kts | 107° |
| 2026-05-05 01:37 | 22.50629 | 49.90394 | 34799 ft | 517 kts | 104° |
| 2026-05-05 01:38 | 22.49120 | 49.98022 | 34799 ft | 518 kts | 104° |
| 2026-05-05 01:38 | 22.47576 | 50.05629 | 34794 ft | 518 kts | 105° |
| 2026-05-05 01:39 | 22.46001 | 50.13204 | 34794 ft | 518 kts | 105° |
| 2026-05-05 01:39 | 22.44407 | 50.20802 | 34800 ft | 518 kts | 105° |
| 2026-05-05 01:40 | 22.42807 | 50.28418 | 34798 ft | 519 kts | 105° |
| 2026-05-05 01:40 | 22.41216 | 50.35985 | 34793 ft | 519 kts | 105° |
| 2026-05-05 01:41 | 22.39613 | 50.43592 | 34794 ft | 519 kts | 105° |
| 2026-05-05 01:41 | 22.38014 | 50.51163 | 34792 ft | 519 kts | 105° |
| 2026-05-05 01:42 | 22.36403 | 50.58773 | 34796 ft | 519 kts | 105° |
| 2026-05-05 01:42 | 22.34791 | 50.66366 | 34795 ft | 519 kts | 105° |
| 2026-05-05 01:43 | 22.33173 | 50.73971 | 34795 ft | 518 kts | 105° |
| 2026-05-05 01:43 | 22.31555 | 50.81558 | 34799 ft | 518 kts | 105° |
| 2026-05-05 01:44 | 22.29932 | 50.89150 | 34803 ft | 518 kts | 105° |
| 2026-05-05 01:44 | 22.28311 | 50.96713 | 34797 ft | 518 kts | 105° |
| 2026-05-05 01:45 | 22.26674 | 51.04332 | 34798 ft | 518 kts | 105° |
| 2026-05-05 01:45 | 22.25043 | 51.11904 | 34796 ft | 518 kts | 105° |
| 2026-05-05 01:46 | 22.23415 | 51.19448 | 34796 ft | 518 kts | 105° |
| 2026-05-05 01:46 | 22.21774 | 51.27029 | 34798 ft | 518 kts | 105° |
| 2026-05-05 01:47 | 22.20131 | 51.34608 | 34801 ft | 518 kts | 105° |
| 2026-05-05 01:47 | 22.18498 | 51.42116 | 34798 ft | 517 kts | 105° |
| 2026-05-05 01:48 | 22.16847 | 51.49696 | 34795 ft | 517 kts | 105° |
| 2026-05-05 01:48 | 22.15197 | 51.57247 | 34796 ft | 517 kts | 105° |
| 2026-05-05 01:49 | 22.13543 | 51.64805 | 34798 ft | 517 kts | 105° |
| 2026-05-05 01:49 | 22.11894 | 51.72319 | 34801 ft | 517 kts | 105° |
| 2026-05-05 01:50 | 22.10232 | 51.79871 | 34801 ft | 517 kts | 105° |
| 2026-05-05 01:50 | 22.08566 | 51.87429 | 34800 ft | 517 kts | 105° |
| 2026-05-05 01:51 | 22.06907 | 51.94940 | 34799 ft | 517 kts | 105° |
| 2026-05-05 01:51 | 22.05241 | 52.02462 | 34802 ft | 516 kts | 105° |
| 2026-05-05 01:52 | 22.03565 | 52.10010 | 34802 ft | 516 kts | 105° |
| 2026-05-05 01:52 | 22.01898 | 52.17503 | 34799 ft | 516 kts | 105° |
| 2026-05-05 01:53 | 22.00216 | 52.25047 | 34798 ft | 515 kts | 105° |
| 2026-05-05 01:53 | 21.98540 | 52.32542 | 34799 ft | 515 kts | 105° |
| 2026-05-05 01:54 | 21.96863 | 52.40030 | 34799 ft | 515 kts | 105° |
| 2026-05-05 01:54 | 21.95183 | 52.47511 | 34801 ft | 514 kts | 105° |
| 2026-05-05 01:55 | 21.93496 | 52.55010 | 34801 ft | 514 kts | 105° |
| 2026-05-05 01:55 | 21.91811 | 52.62488 | 34800 ft | 514 kts | 105° |
| 2026-05-05 01:56 | 21.90191 | 52.69977 | 34799 ft | 514 kts | 101° |
| 2026-05-05 01:56 | 21.89486 | 52.77633 | 34802 ft | 514 kts | 94° |
| 2026-05-05 01:57 | 21.89124 | 52.85300 | 34799 ft | 515 kts | 94° |
| 2026-05-05 01:57 | 21.88739 | 52.93028 | 34794 ft | 515 kts | 94° |
| 2026-05-05 01:58 | 21.88316 | 53.00701 | 34800 ft | 515 kts | 94° |
| 2026-05-05 01:58 | 21.87876 | 53.08357 | 34794 ft | 515 kts | 94° |
| 2026-05-05 01:59 | 21.87430 | 53.16054 | 34796 ft | 515 kts | 94° |
| 2026-05-05 01:59 | 21.86982 | 53.23768 | 34800 ft | 515 kts | 94° |
| 2026-05-05 02:00 | 21.86535 | 53.31420 | 34797 ft | 514 kts | 94° |
| 2026-05-05 02:00 | 21.86081 | 53.39129 | 34800 ft | 514 kts | 94° |
| 2026-05-05 02:01 | 21.85625 | 53.46803 | 34792 ft | 514 kts | 94° |
| 2026-05-05 02:01 | 21.85165 | 53.54493 | 34792 ft | 514 kts | 94° |
| 2026-05-05 02:02 | 21.84705 | 53.62119 | 34796 ft | 513 kts | 94° |
| 2026-05-05 02:02 | 21.84239 | 53.69784 | 34800 ft | 513 kts | 94° |
| 2026-05-05 02:03 | 21.83768 | 53.77464 | 34794 ft | 513 kts | 94° |
| 2026-05-05 02:03 | 21.83295 | 53.85135 | 34795 ft | 513 kts | 94° |
| 2026-05-05 02:04 | 21.82817 | 53.92818 | 34794 ft | 513 kts | 94° |
| 2026-05-05 02:04 | 21.82340 | 54.00445 | 34797 ft | 512 kts | 94° |
| 2026-05-05 02:05 | 21.81857 | 54.08093 | 34790 ft | 512 kts | 94° |
| 2026-05-05 02:05 | 21.81371 | 54.15736 | 34788 ft | 512 kts | 94° |
| 2026-05-05 02:06 | 21.80881 | 54.23382 | 34783 ft | 512 kts | 94° |
| 2026-05-05 02:06 | 21.80389 | 54.31016 | 34783 ft | 511 kts | 94° |
| 2026-05-05 02:07 | 21.79894 | 54.38645 | 34787 ft | 511 kts | 94° |
| 2026-05-05 02:07 | 21.79394 | 54.46285 | 34785 ft | 511 kts | 94° |
| 2026-05-05 02:08 | 21.79630 | 54.53812 | 34786 ft | 507 kts | 73° |
| 2026-05-05 02:08 | 21.80875 | 54.57378 | 34789 ft | 505 kts | 61° |
| 2026-05-05 02:08 | 21.82756 | 54.60506 | 34776 ft | 501 kts | 47° |
| 2026-05-05 02:09 | 21.87418 | 54.66081 | 34784 ft | 502 kts | 46° |
| 2026-05-05 02:09 | 21.92111 | 54.71700 | 34786 ft | 505 kts | 46° |
| 2026-05-05 02:10 | 21.96781 | 54.77413 | 34792 ft | 508 kts | 47° |
| 2026-05-05 02:10 | 22.01413 | 54.83136 | 34785 ft | 509 kts | 47° |
| 2026-05-05 02:11 | 22.06078 | 54.88910 | 34786 ft | 509 kts | 47° |
| 2026-05-05 02:11 | 22.10713 | 54.94645 | 34787 ft | 509 kts | 47° |
| 2026-05-05 02:12 | 22.17671 | 55.03261 | 34786 ft | 507 kts | 47° |
| 2026-05-05 02:13 | 22.22288 | 55.08988 | 34784 ft | 507 kts | 47° |
| 2026-05-05 02:13 | 22.26911 | 55.14728 | 34784 ft | 506 kts | 47° |
| 2026-05-05 02:14 | 22.31532 | 55.20471 | 34787 ft | 506 kts | 47° |
| 2026-05-05 02:14 | 22.36153 | 55.26221 | 34786 ft | 506 kts | 47° |
| 2026-05-05 02:15 | 22.40759 | 55.31959 | 34790 ft | 506 kts | 47° |
| 2026-05-05 02:15 | 22.44350 | 55.37003 | 34791 ft | 509 kts | 56° |
| 2026-05-05 02:16 | 22.47680 | 55.43769 | 34784 ft | 511 kts | 66° |
| 2026-05-05 02:16 | 22.50309 | 55.50863 | 34790 ft | 512 kts | 67° |
| 2026-05-05 02:17 | 22.52935 | 55.58065 | 34792 ft | 513 kts | 67° |
| 2026-05-05 02:17 | 22.55578 | 55.65197 | 34789 ft | 513 kts | 67° |
| 2026-05-05 02:18 | 22.58260 | 55.72375 | 34792 ft | 514 kts | 66° |
| 2026-05-05 02:18 | 22.60943 | 55.79558 | 34794 ft | 514 kts | 67° |
| 2026-05-05 02:19 | 22.63618 | 55.86738 | 34794 ft | 514 kts | 67° |
| 2026-05-05 02:19 | 22.66272 | 55.93877 | 34796 ft | 514 kts | 67° |
| 2026-05-05 02:20 | 22.68944 | 56.01076 | 34800 ft | 513 kts | 67° |
| 2026-05-05 02:20 | 22.71596 | 56.08234 | 34803 ft | 513 kts | 67° |
| 2026-05-05 02:21 | 22.74248 | 56.15401 | 34806 ft | 513 kts | 67° |
| 2026-05-05 02:21 | 22.76907 | 56.22600 | 34804 ft | 513 kts | 67° |
| 2026-05-05 02:22 | 22.79551 | 56.29771 | 34811 ft | 513 kts | 67° |
| 2026-05-05 02:22 | 22.82170 | 56.36939 | 34813 ft | 514 kts | 69° |
| 2026-05-05 02:23 | 22.84036 | 56.44430 | 34820 ft | 515 kts | 78° |
| 2026-05-05 02:23 | 22.85419 | 56.52046 | 34819 ft | 515 kts | 78° |
| 2026-05-05 02:24 | 22.86805 | 56.59651 | 34824 ft | 516 kts | 78° |
| 2026-05-05 02:24 | 22.88234 | 56.67270 | 34828 ft | 516 kts | 78° |
| 2026-05-05 02:25 | 22.89678 | 56.74906 | 34837 ft | 516 kts | 78° |
| 2026-05-05 02:25 | 22.91117 | 56.82541 | 34843 ft | 516 kts | 78° |
| 2026-05-05 02:26 | 22.92547 | 56.90161 | 34851 ft | 515 kts | 78° |
| 2026-05-05 02:26 | 22.93969 | 56.97770 | 34861 ft | 515 kts | 78° |
| 2026-05-05 02:27 | 22.95388 | 57.05374 | 34867 ft | 515 kts | 78° |
| 2026-05-05 02:27 | 22.96804 | 57.12993 | 34870 ft | 514 kts | 78° |
| 2026-05-05 02:28 | 22.98219 | 57.20621 | 34876 ft | 514 kts | 78° |
| 2026-05-05 02:28 | 22.99620 | 57.28204 | 34882 ft | 514 kts | 78° |
| 2026-05-05 02:29 | 23.00385 | 57.35923 | 34887 ft | 515 kts | 88° |
| 2026-05-05 02:29 | 23.00573 | 57.43680 | 34889 ft | 515 kts | 89° |
| 2026-05-05 02:30 | 23.00766 | 57.51471 | 34885 ft | 515 kts | 88° |
| 2026-05-05 02:30 | 23.01003 | 57.59253 | 34883 ft | 516 kts | 88° |
| 2026-05-05 02:31 | 23.01248 | 57.67013 | 34876 ft | 515 kts | 88° |
| 2026-05-05 02:31 | 23.01486 | 57.74762 | 34858 ft | 515 kts | 88° |
| 2026-05-05 02:32 | 23.01719 | 57.82547 | 34853 ft | 515 kts | 88° |
| 2026-05-05 02:32 | 23.01875 | 57.90340 | 34842 ft | 516 kts | 90° |
| 2026-05-05 02:33 | 23.01853 | 57.98097 | 34842 ft | 516 kts | 90° |
| 2026-05-05 02:33 | 23.01822 | 58.05879 | 34832 ft | 517 kts | 90° |
| 2026-05-05 02:34 | 23.01816 | 58.13689 | 34827 ft | 517 kts | 90° |
| 2026-05-05 02:34 | 23.01817 | 58.21511 | 34826 ft | 516 kts | 90° |
| 2026-05-05 02:35 | 23.01812 | 58.29280 | 34826 ft | 516 kts | 90° |
| 2026-05-05 02:35 | 23.01801 | 58.37057 | 34820 ft | 516 kts | 90° |
| 2026-05-05 02:36 | 23.01952 | 58.44857 | 34821 ft | 517 kts | 88° |
| 2026-05-05 02:36 | 23.02275 | 58.52655 | 34812 ft | 517 kts | 87° |
| 2026-05-05 02:37 | 23.02575 | 58.60458 | 34809 ft | 516 kts | 88° |
| 2026-05-05 02:37 | 23.02834 | 58.68204 | 34811 ft | 516 kts | 88° |
| 2026-05-05 02:38 | 23.03081 | 58.75985 | 34805 ft | 516 kts | 88° |
| 2026-05-05 02:38 | 23.03328 | 58.83786 | 34796 ft | 516 kts | 88° |
| 2026-05-05 02:39 | 23.03573 | 58.91583 | 34788 ft | 516 kts | 88° |
| 2026-05-05 02:39 | 23.03815 | 58.99373 | 34791 ft | 516 kts | 88° |
| 2026-05-05 02:40 | 23.04047 | 59.07148 | 34771 ft | 516 kts | 88° |
| 2026-05-05 02:40 | 23.04271 | 59.14911 | 34779 ft | 516 kts | 88° |
| 2026-05-05 02:41 | 23.04459 | 59.21518 | 34769 ft | 517 kts | 88° |
| 2026-05-05 02:41 | 23.04679 | 59.29317 | 34769 ft | 517 kts | 88° |
| 2026-05-05 02:42 | 23.04896 | 59.37149 | 34760 ft | 518 kts | 88° |
| 2026-05-05 02:42 | 23.05053 | 59.44971 | 34759 ft | 518 kts | 89° |
| 2026-05-05 02:43 | 23.05160 | 59.52746 | 34759 ft | 518 kts | 89° |
| 2026-05-05 02:43 | 23.05273 | 59.60593 | 34764 ft | 518 kts | 89° |
| 2026-05-05 02:44 | 23.05391 | 59.68413 | 34763 ft | 518 kts | 89° |
| 2026-05-05 02:44 | 23.05507 | 59.76233 | 34769 ft | 518 kts | 89° |
| 2026-05-05 02:45 | 23.05617 | 59.84052 | 34776 ft | 518 kts | 89° |
| 2026-05-05 02:45 | 23.05723 | 59.91851 | 34777 ft | 518 kts | 89° |
| 2026-05-05 02:46 | 23.05815 | 59.99709 | 34780 ft | 518 kts | 89° |
| 2026-05-05 02:46 | 23.05898 | 60.07523 | 34784 ft | 518 kts | 89° |
| 2026-05-05 02:47 | 23.05979 | 60.15319 | 34788 ft | 518 kts | 89° |
| 2026-05-05 02:47 | 23.06058 | 60.23151 | 34791 ft | 518 kts | 89° |
| 2026-05-05 02:48 | 23.06133 | 60.30976 | 34794 ft | 518 kts | 89° |
| 2026-05-05 02:48 | 23.06204 | 60.38759 | 34795 ft | 518 kts | 89° |
| 2026-05-05 02:49 | 23.06271 | 60.46599 | 34798 ft | 518 kts | 89° |
| 2026-05-05 02:49 | 23.06334 | 60.54416 | 34799 ft | 518 kts | 89° |
| 2026-05-05 02:50 | 23.06394 | 60.62219 | 34801 ft | 519 kts | 89° |
| 2026-05-05 02:50 | 23.06455 | 60.70077 | 34805 ft | 519 kts | 89° |
| 2026-05-05 02:51 | 23.06518 | 60.77911 | 34802 ft | 519 kts | 89° |
| 2026-05-05 02:51 | 23.06577 | 60.85719 | 34805 ft | 519 kts | 89° |
| 2026-05-05 02:52 | 23.06631 | 60.93587 | 34806 ft | 519 kts | 89° |
| 2026-05-05 02:52 | 23.06681 | 61.01402 | 34807 ft | 519 kts | 89° |
| 2026-05-05 02:53 | 23.06727 | 61.09224 | 34808 ft | 519 kts | 89° |
| 2026-05-05 02:53 | 23.06769 | 61.17087 | 34810 ft | 519 kts | 89° |
| 2026-05-05 02:54 | 23.06808 | 61.24889 | 34815 ft | 518 kts | 89° |
| 2026-05-05 02:54 | 23.06842 | 61.32716 | 34813 ft | 518 kts | 89° |
| 2026-05-05 02:55 | 23.06873 | 61.40532 | 34816 ft | 518 kts | 89° |
| 2026-05-05 02:55 | 23.06900 | 61.48366 | 34815 ft | 518 kts | 89° |
| 2026-05-05 02:56 | 23.06932 | 61.56190 | 34821 ft | 518 kts | 89° |
| 2026-05-05 02:56 | 23.06966 | 61.64038 | 34820 ft | 518 kts | 89° |
| 2026-05-05 02:57 | 23.06995 | 61.71817 | 34819 ft | 518 kts | 89° |
| 2026-05-05 02:57 | 23.07011 | 61.79668 | 34823 ft | 518 kts | 89° |
| 2026-05-05 02:58 | 23.07012 | 61.87457 | 34826 ft | 518 kts | 89° |
| 2026-05-05 02:58 | 23.07010 | 61.91378 | 34932 ft | 522 kts | 89° |
| 2026-05-05 02:58 | 23.07009 | 61.95301 | 35241 ft | 521 kts | 89° |
| 2026-05-05 02:58 | 23.07007 | 61.97923 | 35503 ft | 519 kts | 89° |
| 2026-05-05 02:59 | 23.07004 | 62.01815 | 35911 ft | 516 kts | 89° |
| 2026-05-05 02:59 | 23.07001 | 62.05727 | 36304 ft | 513 kts | 89° |
| 2026-05-05 02:59 | 23.06996 | 62.09585 | 36677 ft | 511 kts | 89° |
| 2026-05-05 02:59 | 23.06992 | 62.13432 | 36782 ft | 513 kts | 89° |
| 2026-05-05 03:00 | 23.06986 | 62.17345 | 36824 ft | 515 kts | 89° |
| 2026-05-05 03:00 | 23.06971 | 62.25080 | 36821 ft | 512 kts | 89° |
| 2026-05-05 03:01 | 23.06952 | 62.32784 | 36828 ft | 509 kts | 89° |
| 2026-05-05 03:01 | 23.06930 | 62.40484 | 36831 ft | 508 kts | 89° |
| 2026-05-05 03:02 | 23.06904 | 62.48159 | 36830 ft | 508 kts | 89° |
| 2026-05-05 03:02 | 23.06875 | 62.55810 | 36838 ft | 509 kts | 89° |
| 2026-05-05 03:03 | 23.06842 | 62.63511 | 36839 ft | 511 kts | 89° |
| 2026-05-05 03:03 | 23.06804 | 62.71239 | 36833 ft | 513 kts | 90° |
| 2026-05-05 03:04 | 23.06763 | 62.79006 | 36829 ft | 514 kts | 90° |
| 2026-05-05 03:04 | 23.06718 | 62.86738 | 36834 ft | 515 kts | 90° |
| 2026-05-05 03:05 | 23.06669 | 62.94522 | 36833 ft | 515 kts | 90° |
| 2026-05-05 03:05 | 23.06616 | 63.02318 | 36829 ft | 515 kts | 90° |
| 2026-05-05 03:06 | 23.06560 | 63.10093 | 36833 ft | 515 kts | 90° |
| 2026-05-05 03:06 | 23.06499 | 63.17845 | 36838 ft | 514 kts | 90° |
| 2026-05-05 03:07 | 23.06436 | 63.25598 | 36834 ft | 514 kts | 90° |
| 2026-05-05 03:07 | 23.06368 | 63.33379 | 36835 ft | 514 kts | 90° |
| 2026-05-05 03:08 | 23.06296 | 63.41104 | 36836 ft | 513 kts | 90° |
| 2026-05-05 03:08 | 23.06221 | 63.48859 | 36837 ft | 513 kts | 90° |
| 2026-05-05 03:09 | 23.06142 | 63.56638 | 36836 ft | 513 kts | 90° |
| 2026-05-05 03:09 | 23.06059 | 63.64349 | 36839 ft | 513 kts | 90° |
| 2026-05-05 03:10 | 23.05973 | 63.72105 | 36837 ft | 513 kts | 90° |
| 2026-05-05 03:10 | 23.05883 | 63.79865 | 36839 ft | 514 kts | 90° |
| 2026-05-05 03:11 | 23.05742 | 63.87601 | 36843 ft | 514 kts | 94° |
| 2026-05-05 03:11 | 23.05011 | 63.95346 | 36849 ft | 514 kts | 96° |
| 2026-05-05 03:12 | 23.04176 | 64.03033 | 36840 ft | 515 kts | 96° |
| 2026-05-05 03:12 | 23.03360 | 64.10759 | 36842 ft | 515 kts | 96° |
| 2026-05-05 03:13 | 23.02569 | 64.18479 | 36843 ft | 515 kts | 96° |
| 2026-05-05 03:13 | 23.01777 | 64.26226 | 36845 ft | 515 kts | 96° |
| 2026-05-05 03:14 | 23.00980 | 64.33975 | 36843 ft | 515 kts | 96° |
| 2026-05-05 03:14 | 23.00180 | 64.41688 | 36839 ft | 515 kts | 96° |
| 2026-05-05 03:15 | 22.99377 | 64.49391 | 36838 ft | 515 kts | 96° |
| 2026-05-05 03:15 | 22.98567 | 64.57125 | 36844 ft | 515 kts | 96° |
| 2026-05-05 03:16 | 22.97755 | 64.64848 | 36843 ft | 515 kts | 96° |
| 2026-05-05 03:16 | 22.96935 | 64.72609 | 36836 ft | 515 kts | 96° |
| 2026-05-05 03:17 | 22.96117 | 64.80324 | 36841 ft | 515 kts | 96° |
| 2026-05-05 03:17 | 22.95723 | 64.88020 | 36842 ft | 513 kts | 89° |
| 2026-05-05 03:18 | 22.95806 | 64.95767 | 36841 ft | 513 kts | 88° |
| 2026-05-05 03:18 | 22.95906 | 65.03521 | 36833 ft | 514 kts | 88° |
| 2026-05-05 03:19 | 22.95987 | 65.15164 | 36835 ft | 514 kts | 89° |
| 2026-05-05 03:19 | 22.96017 | 65.22889 | 36836 ft | 514 kts | 89° |
| 2026-05-05 03:20 | 22.96045 | 65.30669 | 36831 ft | 514 kts | 89° |
| 2026-05-05 03:20 | 22.96071 | 65.38432 | 36834 ft | 514 kts | 89° |
| 2026-05-05 03:21 | 22.96095 | 65.46189 | 36829 ft | 514 kts | 89° |
| 2026-05-05 03:21 | 22.96114 | 65.53929 | 36830 ft | 514 kts | 89° |
| 2026-05-05 03:22 | 22.96130 | 65.61694 | 36833 ft | 514 kts | 89° |
| 2026-05-05 03:22 | 22.96141 | 65.69419 | 36828 ft | 514 kts | 89° |
| 2026-05-05 03:23 | 22.96149 | 65.77188 | 36833 ft | 514 kts | 89° |
| 2026-05-05 03:23 | 22.96154 | 65.84946 | 36834 ft | 514 kts | 89° |
| 2026-05-05 03:24 | 22.96154 | 65.92659 | 36833 ft | 513 kts | 89° |
| 2026-05-05 03:24 | 22.96151 | 66.00430 | 36834 ft | 513 kts | 89° |
| 2026-05-05 03:25 | 22.96144 | 66.08166 | 36837 ft | 513 kts | 89° |
| 2026-05-05 03:25 | 22.96133 | 66.15880 | 36837 ft | 513 kts | 89° |
| 2026-05-05 03:26 | 22.96119 | 66.23656 | 36837 ft | 513 kts | 89° |
| 2026-05-05 03:26 | 22.96100 | 66.31379 | 36832 ft | 513 kts | 89° |
| 2026-05-05 03:27 | 22.96078 | 66.39127 | 36833 ft | 513 kts | 89° |
| 2026-05-05 03:27 | 22.96053 | 66.46885 | 36830 ft | 513 kts | 89° |
| 2026-05-05 03:28 | 22.96023 | 66.54591 | 36836 ft | 513 kts | 89° |
| 2026-05-05 03:28 | 22.95990 | 66.62339 | 36838 ft | 513 kts | 89° |
| 2026-05-05 03:29 | 22.95953 | 66.70085 | 36838 ft | 513 kts | 89° |
| 2026-05-05 03:29 | 22.95912 | 66.77835 | 36841 ft | 513 kts | 89° |
| 2026-05-05 03:30 | 22.95868 | 66.85560 | 36839 ft | 513 kts | 89° |
| 2026-05-05 03:30 | 22.95820 | 66.93286 | 36840 ft | 513 kts | 89° |
| 2026-05-05 03:31 | 22.95789 | 67.01031 | 36842 ft | 513 kts | 89° |
| 2026-05-05 03:31 | 22.95814 | 67.08788 | 36844 ft | 513 kts | 89° |
| 2026-05-05 03:32 | 22.95842 | 67.16561 | 36848 ft | 514 kts | 89° |
| 2026-05-05 03:32 | 22.95856 | 67.24310 | 36839 ft | 514 kts | 89° |
| 2026-05-05 03:33 | 22.95862 | 67.32008 | 36842 ft | 514 kts | 89° |
| 2026-05-05 03:33 | 22.95864 | 67.39812 | 36841 ft | 514 kts | 89° |
| 2026-05-05 03:34 | 22.95863 | 67.47538 | 36839 ft | 514 kts | 89° |
| 2026-05-05 03:34 | 22.95858 | 67.55310 | 36835 ft | 514 kts | 89° |
| 2026-05-05 03:35 | 22.95850 | 67.63066 | 36838 ft | 514 kts | 89° |
| 2026-05-05 03:35 | 22.95838 | 67.70781 | 36838 ft | 514 kts | 89° |
| 2026-05-05 03:36 | 22.95822 | 67.78567 | 36844 ft | 514 kts | 89° |
| 2026-05-05 03:36 | 22.95803 | 67.86298 | 36839 ft | 515 kts | 89° |
| 2026-05-05 03:37 | 22.95799 | 67.94078 | 36840 ft | 515 kts | 89° |
| 2026-05-05 03:37 | 22.95812 | 68.01842 | 36840 ft | 515 kts | 89° |
| 2026-05-05 03:38 | 22.95820 | 68.09626 | 36838 ft | 515 kts | 89° |
| 2026-05-05 03:38 | 22.95819 | 68.17385 | 36839 ft | 515 kts | 89° |
| 2026-05-05 03:39 | 22.95815 | 68.25159 | 36839 ft | 515 kts | 89° |
| 2026-05-05 03:39 | 22.95807 | 68.32938 | 36839 ft | 515 kts | 89° |
| 2026-05-05 03:40 | 22.95693 | 68.40732 | 36837 ft | 516 kts | 92° |
| 2026-05-05 03:40 | 22.95251 | 68.48496 | 36838 ft | 516 kts | 93° |
| 2026-05-05 03:41 | 22.94756 | 68.56235 | 36840 ft | 516 kts | 93° |
| 2026-05-05 03:41 | 22.94281 | 68.63985 | 36842 ft | 516 kts | 92° |
| 2026-05-05 03:42 | 22.93899 | 68.70452 | 36841 ft | 516 kts | 92° |
| 2026-05-05 03:42 | 22.93440 | 68.78241 | 36840 ft | 516 kts | 92° |
| 2026-05-05 03:43 | 22.92977 | 68.86022 | 36844 ft | 516 kts | 92° |
| 2026-05-05 03:43 | 22.92509 | 68.93787 | 36843 ft | 517 kts | 92° |
| 2026-05-05 03:44 | 22.92035 | 69.01575 | 36841 ft | 517 kts | 92° |
| 2026-05-05 03:44 | 22.91559 | 69.09343 | 36847 ft | 517 kts | 93° |
| 2026-05-05 03:45 | 22.91081 | 69.17087 | 36851 ft | 517 kts | 93° |
| 2026-05-05 03:45 | 22.90596 | 69.24885 | 36850 ft | 517 kts | 93° |
| 2026-05-05 03:46 | 22.90108 | 69.32650 | 36847 ft | 517 kts | 93° |
| 2026-05-05 03:46 | 22.89616 | 69.40445 | 36846 ft | 518 kts | 93° |
| 2026-05-05 03:47 | 22.89118 | 69.48256 | 36853 ft | 518 kts | 93° |
| 2026-05-05 03:47 | 22.88619 | 69.56030 | 36846 ft | 518 kts | 93° |
| 2026-05-05 03:48 | 22.88114 | 69.63835 | 36849 ft | 518 kts | 93° |
| 2026-05-05 03:48 | 22.87608 | 69.71647 | 36855 ft | 518 kts | 92° |
| 2026-05-05 03:49 | 22.87149 | 69.79403 | 36852 ft | 519 kts | 92° |
| 2026-05-05 03:49 | 22.86706 | 69.87206 | 36848 ft | 519 kts | 92° |
| 2026-05-05 03:50 | 22.86253 | 69.95036 | 36849 ft | 519 kts | 92° |
| 2026-05-05 03:50 | 22.85793 | 70.02820 | 36854 ft | 519 kts | 92° |
| 2026-05-05 03:51 | 22.85323 | 70.10667 | 36850 ft | 519 kts | 92° |
| 2026-05-05 03:51 | 22.84855 | 70.18433 | 36857 ft | 519 kts | 92° |
| 2026-05-05 03:52 | 22.84378 | 70.26282 | 36849 ft | 520 kts | 92° |
| 2026-05-05 03:52 | 22.83901 | 70.34072 | 36857 ft | 520 kts | 92° |
| 2026-05-05 03:53 | 22.83418 | 70.41901 | 36864 ft | 520 kts | 92° |
| 2026-05-05 03:53 | 22.82931 | 70.49725 | 36855 ft | 520 kts | 92° |
| 2026-05-05 03:54 | 22.82441 | 70.57548 | 36865 ft | 520 kts | 93° |
| 2026-05-05 03:54 | 22.81950 | 70.65323 | 36865 ft | 520 kts | 92° |
| 2026-05-05 03:55 | 22.82051 | 70.69202 | 36853 ft | 514 kts | 77° |
| 2026-05-05 03:55 | 22.83109 | 70.72875 | 36872 ft | 507 kts | 61° |
| 2026-05-05 03:55 | 22.84899 | 70.76134 | 36870 ft | 501 kts | 48° |
| 2026-05-05 03:55 | 22.87229 | 70.78893 | 36870 ft | 495 kts | 41° |
| 2026-05-05 03:56 | 22.92066 | 70.84271 | 36864 ft | 499 kts | 42° |
| 2026-05-05 03:56 | 22.96889 | 70.89742 | 36865 ft | 503 kts | 42° |
| 2026-05-05 03:57 | 23.01687 | 70.95260 | 36865 ft | 506 kts | 43° |
| 2026-05-05 03:57 | 23.06515 | 71.00838 | 36859 ft | 507 kts | 43° |
| 2026-05-05 03:58 | 23.11338 | 71.06416 | 36856 ft | 507 kts | 43° |
| 2026-05-05 03:58 | 23.16167 | 71.12001 | 36855 ft | 506 kts | 43° |
| 2026-05-05 03:59 | 23.20977 | 71.17569 | 36837 ft | 504 kts | 42° |
| 2026-05-05 03:59 | 23.25776 | 71.23130 | 36849 ft | 503 kts | 42° |
| 2026-05-05 04:00 | 23.30533 | 71.28648 | 36858 ft | 502 kts | 42° |
| 2026-05-05 04:00 | 23.35304 | 71.34188 | 36845 ft | 501 kts | 42° |
| 2026-05-05 04:01 | 23.40078 | 71.39738 | 36846 ft | 501 kts | 42° |
| 2026-05-05 04:01 | 23.44820 | 71.45257 | 36843 ft | 501 kts | 42° |
| 2026-05-05 04:02 | 23.49603 | 71.50831 | 36861 ft | 502 kts | 42° |
| 2026-05-05 04:02 | 23.54353 | 71.56371 | 36855 ft | 502 kts | 42° |
| 2026-05-05 04:03 | 23.59129 | 71.61949 | 36853 ft | 503 kts | 42° |
| 2026-05-05 04:03 | 23.63887 | 71.67512 | 36857 ft | 503 kts | 42° |
| 2026-05-05 04:04 | 23.68678 | 71.73120 | 36856 ft | 503 kts | 42° |
| 2026-05-05 04:04 | 23.73424 | 71.78683 | 36860 ft | 504 kts | 42° |
| 2026-05-05 04:05 | 23.78208 | 71.84296 | 36856 ft | 504 kts | 42° |
| 2026-05-05 04:05 | 23.82983 | 71.89906 | 36859 ft | 504 kts | 42° |
| 2026-05-05 04:06 | 23.87756 | 71.95519 | 36855 ft | 504 kts | 42° |
| 2026-05-05 04:06 | 23.92526 | 72.01135 | 36863 ft | 504 kts | 42° |
| 2026-05-05 04:07 | 23.97277 | 72.06735 | 36859 ft | 504 kts | 41° |
| 2026-05-05 04:07 | 24.02056 | 72.12375 | 36860 ft | 504 kts | 41° |
| 2026-05-05 04:08 | 24.06832 | 72.18019 | 36870 ft | 504 kts | 41° |
| 2026-05-05 04:08 | 24.11584 | 72.23640 | 36877 ft | 504 kts | 41° |
| 2026-05-05 04:09 | 24.16361 | 72.29297 | 36878 ft | 505 kts | 41° |
| 2026-05-05 04:09 | 24.21104 | 72.34922 | 36887 ft | 505 kts | 41° |
| 2026-05-05 04:10 | 24.25867 | 72.40576 | 36889 ft | 505 kts | 41° |
| 2026-05-05 04:10 | 24.30646 | 72.46255 | 36895 ft | 505 kts | 41° |
| 2026-05-05 04:11 | 24.35415 | 72.51931 | 36900 ft | 505 kts | 41° |
| 2026-05-05 04:11 | 24.40151 | 72.57573 | 36905 ft | 506 kts | 41° |
| 2026-05-05 04:12 | 24.44911 | 72.63251 | 36907 ft | 505 kts | 41° |
| 2026-05-05 04:12 | 24.49680 | 72.68947 | 36919 ft | 505 kts | 41° |
| 2026-05-05 04:13 | 24.54443 | 72.74640 | 36911 ft | 506 kts | 41° |
| 2026-05-05 04:13 | 24.59188 | 72.80321 | 36925 ft | 506 kts | 41° |
| 2026-05-05 04:14 | 24.63941 | 72.86019 | 36928 ft | 506 kts | 41° |
| 2026-05-05 04:14 | 24.68699 | 72.91730 | 36936 ft | 506 kts | 41° |
| 2026-05-05 04:15 | 24.73453 | 72.97441 | 36937 ft | 506 kts | 41° |
| 2026-05-05 04:15 | 24.78180 | 73.03127 | 36942 ft | 506 kts | 41° |
| 2026-05-05 04:16 | 24.82924 | 73.08841 | 36940 ft | 506 kts | 41° |
| 2026-05-05 04:16 | 24.87686 | 73.14583 | 36928 ft | 506 kts | 41° |
| 2026-05-05 04:17 | 24.92438 | 73.20320 | 36930 ft | 506 kts | 41° |
| 2026-05-05 04:17 | 24.97158 | 73.26025 | 36939 ft | 507 kts | 41° |
| 2026-05-05 04:18 | 25.01917 | 73.31786 | 36947 ft | 507 kts | 41° |
| 2026-05-05 04:18 | 25.06689 | 73.37569 | 36944 ft | 508 kts | 41° |
| 2026-05-05 04:19 | 25.11439 | 73.43332 | 36944 ft | 509 kts | 41° |
| 2026-05-05 04:19 | 25.16210 | 73.49128 | 36941 ft | 510 kts | 41° |
| 2026-05-05 04:20 | 25.20959 | 73.54906 | 36937 ft | 510 kts | 41° |
| 2026-05-05 04:20 | 25.25715 | 73.60699 | 36944 ft | 510 kts | 41° |
| 2026-05-05 04:21 | 25.30476 | 73.66506 | 36936 ft | 510 kts | 41° |
| 2026-05-05 04:21 | 25.35222 | 73.72302 | 36936 ft | 509 kts | 41° |
| 2026-05-05 04:22 | 25.39997 | 73.78138 | 36944 ft | 509 kts | 42° |
| 2026-05-05 04:22 | 25.44750 | 73.83956 | 36943 ft | 509 kts | 42° |
| 2026-05-05 04:23 | 25.49471 | 73.89742 | 36945 ft | 510 kts | 42° |
| 2026-05-05 04:23 | 25.54236 | 73.95590 | 36926 ft | 510 kts | 42° |
| 2026-05-05 04:24 | 25.58995 | 74.01438 | 36932 ft | 510 kts | 42° |
| 2026-05-05 04:25 | 25.66101 | 74.10184 | 36940 ft | 511 kts | 42° |
| 2026-05-05 04:25 | 25.70862 | 74.16054 | 36943 ft | 511 kts | 42° |
| 2026-05-05 04:26 | 25.75629 | 74.21938 | 36944 ft | 512 kts | 42° |
| 2026-05-05 04:26 | 25.80366 | 74.27793 | 36941 ft | 513 kts | 42° |
| 2026-05-05 04:27 | 25.85135 | 74.33694 | 36938 ft | 514 kts | 42° |
| 2026-05-05 04:27 | 25.89914 | 74.39617 | 36938 ft | 514 kts | 42° |
| 2026-05-05 04:28 | 25.94663 | 74.45511 | 36943 ft | 515 kts | 43° |
| 2026-05-05 04:28 | 25.99441 | 74.51446 | 36944 ft | 515 kts | 43° |
| 2026-05-05 04:29 | 26.04203 | 74.57372 | 36932 ft | 515 kts | 43° |
| 2026-05-05 04:29 | 26.08180 | 74.62325 | 36942 ft | 516 kts | 43° |
| 2026-05-05 04:30 | 26.12987 | 74.68321 | 36938 ft | 516 kts | 43° |
| 2026-05-05 04:30 | 26.17761 | 74.74283 | 36938 ft | 516 kts | 43° |
| 2026-05-05 04:31 | 26.22518 | 74.80232 | 36935 ft | 517 kts | 43° |
| 2026-05-05 04:31 | 26.27309 | 74.86231 | 36938 ft | 517 kts | 43° |
| 2026-05-05 04:32 | 26.32093 | 74.92230 | 36938 ft | 518 kts | 43° |
| 2026-05-05 04:32 | 26.36850 | 74.98205 | 36939 ft | 518 kts | 43° |
| 2026-05-05 04:33 | 26.41688 | 75.04171 | 36935 ft | 516 kts | 39° |
| 2026-05-05 04:33 | 26.47136 | 75.09242 | 36920 ft | 501 kts | 28° |
| 2026-05-05 04:33 | 26.50040 | 75.11298 | 36935 ft | 489 kts | 23° |
| 2026-05-05 04:34 | 26.52927 | 75.13177 | 36943 ft | 485 kts | 22° |
| 2026-05-05 04:34 | 26.58792 | 75.16929 | 36941 ft | 487 kts | 22° |
| 2026-05-05 04:35 | 26.64673 | 75.20727 | 36940 ft | 489 kts | 23° |
| 2026-05-05 04:35 | 26.70554 | 75.24574 | 36946 ft | 490 kts | 23° |
| 2026-05-05 04:36 | 26.76443 | 75.28446 | 36943 ft | 491 kts | 23° |
| 2026-05-05 04:36 | 26.82341 | 75.32329 | 36949 ft | 491 kts | 23° |
| 2026-05-05 04:37 | 26.88074 | 75.36117 | 36700 ft | 474 kts | 23° |
| 2026-05-05 04:37 | 26.90902 | 75.37983 | 36278 ft | 470 kts | 23° |
| 2026-05-05 04:37 | 26.93710 | 75.39835 | 35854 ft | 466 kts | 23° |
| 2026-05-05 04:37 | 26.96497 | 75.41672 | 35439 ft | 462 kts | 23° |
| 2026-05-05 04:38 | 26.99257 | 75.43492 | 35007 ft | 459 kts | 23° |
| 2026-05-05 04:38 | 27.02007 | 75.45306 | 34555 ft | 457 kts | 24° |
| 2026-05-05 04:38 | 27.04741 | 75.47111 | 34129 ft | 455 kts | 24° |
| 2026-05-05 04:38 | 27.07462 | 75.48909 | 33637 ft | 453 kts | 24° |
| 2026-05-05 04:39 | 27.10179 | 75.50707 | 33182 ft | 450 kts | 24° |
| 2026-05-05 04:39 | 27.12871 | 75.52489 | 32740 ft | 447 kts | 24° |
| 2026-05-05 04:39 | 27.15521 | 75.54245 | 32316 ft | 444 kts | 24° |
| 2026-05-05 04:39 | 27.18177 | 75.56006 | 31886 ft | 441 kts | 24° |
| 2026-05-05 04:40 | 27.20818 | 75.57758 | 31467 ft | 439 kts | 24° |
| 2026-05-05 04:40 | 27.23434 | 75.59493 | 31053 ft | 436 kts | 25° |
| 2026-05-05 04:40 | 27.26042 | 75.61224 | 30638 ft | 434 kts | 25° |
| 2026-05-05 04:40 | 27.28631 | 75.62943 | 30217 ft | 432 kts | 25° |
| 2026-05-05 04:41 | 27.31218 | 75.64662 | 29745 ft | 430 kts | 25° |
| 2026-05-05 04:41 | 27.33791 | 75.66373 | 29282 ft | 428 kts | 25° |
| 2026-05-05 04:41 | 27.36339 | 75.68069 | 28829 ft | 425 kts | 25° |
| 2026-05-05 04:41 | 27.38876 | 75.69759 | 28381 ft | 421 kts | 25° |
| 2026-05-05 04:42 | 27.41388 | 75.71432 | 27953 ft | 418 kts | 25° |
| 2026-05-05 04:42 | 27.43890 | 75.73099 | 27546 ft | 415 kts | 26° |
| 2026-05-05 04:42 | 27.46337 | 75.74731 | 27126 ft | 412 kts | 26° |
| 2026-05-05 04:42 | 27.48796 | 75.76371 | 26711 ft | 409 kts | 26° |
| 2026-05-05 04:43 | 27.51241 | 75.78003 | 26285 ft | 407 kts | 26° |
| 2026-05-05 04:43 | 27.53675 | 75.79628 | 25872 ft | 405 kts | 26° |
| 2026-05-05 04:43 | 27.56093 | 75.81244 | 25463 ft | 403 kts | 26° |
| 2026-05-05 04:43 | 27.58502 | 75.82854 | 25084 ft | 400 kts | 26° |
| 2026-05-05 04:44 | 27.60870 | 75.84439 | 24940 ft | 389 kts | 26° |
| 2026-05-05 04:44 | 27.63180 | 75.85894 | 24597 ft | 384 kts | 21° |
| 2026-05-05 04:44 | 27.65659 | 75.87079 | 23868 ft | 390 kts | 14° |
| 2026-05-05 04:44 | 27.68279 | 75.87993 | 23044 ft | 398 kts | 13° |
| 2026-05-05 04:45 | 27.70944 | 75.88872 | 22398 ft | 399 kts | 13° |
| 2026-05-05 04:45 | 27.73613 | 75.89746 | 21775 ft | 401 kts | 13° |
| 2026-05-05 04:45 | 27.76293 | 75.90630 | 21188 ft | 401 kts | 13° |
| 2026-05-05 04:45 | 27.78966 | 75.91519 | 20697 ft | 399 kts | 13° |
| 2026-05-05 04:46 | 27.81619 | 75.92407 | 20291 ft | 395 kts | 14° |
| 2026-05-05 04:46 | 27.84214 | 75.93284 | 20201 ft | 383 kts | 14° |
| 2026-05-05 04:46 | 27.86727 | 75.94136 | 20134 ft | 372 kts | 14° |
| 2026-05-05 04:46 | 27.89195 | 75.94971 | 19795 ft | 369 kts | 14° |
| 2026-05-05 04:47 | 27.91650 | 75.95800 | 19417 ft | 367 kts | 14° |
| 2026-05-05 04:47 | 27.94060 | 75.96615 | 19026 ft | 365 kts | 14° |
| 2026-05-05 04:47 | 27.96499 | 75.97440 | 18617 ft | 364 kts | 14° |
| 2026-05-05 04:47 | 27.98923 | 75.98260 | 18195 ft | 363 kts | 14° |
| 2026-05-05 04:48 | 28.01342 | 75.99079 | 17727 ft | 359 kts | 14° |
| 2026-05-05 04:48 | 28.03693 | 75.99878 | 17296 ft | 347 kts | 14° |
| 2026-05-05 04:48 | 28.05982 | 76.00657 | 16899 ft | 337 kts | 14° |
| 2026-05-05 04:48 | 28.08195 | 76.01407 | 16538 ft | 335 kts | 14° |
| 2026-05-05 04:49 | 28.10424 | 76.02163 | 16168 ft | 333 kts | 14° |
| 2026-05-05 04:49 | 28.12650 | 76.02918 | 15792 ft | 332 kts | 14° |
| 2026-05-05 04:49 | 28.14861 | 76.03670 | 15426 ft | 330 kts | 14° |
| 2026-05-05 04:49 | 28.17011 | 76.04401 | 15292 ft | 321 kts | 14° |
| 2026-05-05 04:50 | 28.19126 | 76.05121 | 15134 ft | 313 kts | 14° |
| 2026-05-05 04:50 | 28.21172 | 76.05848 | 14986 ft | 302 kts | 21° |
| 2026-05-05 04:50 | 28.22888 | 76.07160 | 14783 ft | 298 kts | 45° |
| 2026-05-05 04:50 | 28.24037 | 76.09106 | 14456 ft | 296 kts | 61° |
| 2026-05-05 04:51 | 28.24961 | 76.11186 | 14170 ft | 296 kts | 62° |
| 2026-05-05 04:51 | 28.25873 | 76.13286 | 13854 ft | 297 kts | 63° |
| 2026-05-05 04:51 | 28.26785 | 76.15388 | 13498 ft | 297 kts | 63° |
| 2026-05-05 04:51 | 28.27698 | 76.17482 | 13145 ft | 296 kts | 62° |
| 2026-05-05 04:52 | 28.28616 | 76.19574 | 12804 ft | 295 kts | 62° |
| 2026-05-05 04:52 | 28.29522 | 76.21634 | 12474 ft | 294 kts | 62° |
| 2026-05-05 04:52 | 28.30436 | 76.23708 | 12143 ft | 293 kts | 62° |
| 2026-05-05 04:52 | 28.31348 | 76.25774 | 11831 ft | 292 kts | 62° |
| 2026-05-05 04:53 | 28.32260 | 76.27843 | 11499 ft | 292 kts | 62° |
| 2026-05-05 04:53 | 28.33168 | 76.29898 | 11176 ft | 291 kts | 62° |
| 2026-05-05 04:53 | 28.34075 | 76.31952 | 10850 ft | 291 kts | 63° |
| 2026-05-05 04:53 | 28.34982 | 76.34005 | 10548 ft | 290 kts | 63° |
| 2026-05-05 04:54 | 28.35882 | 76.36045 | 10268 ft | 287 kts | 63° |
| 2026-05-05 04:54 | 28.36774 | 76.38069 | 9987 ft | 286 kts | 63° |
| 2026-05-05 04:54 | 28.37651 | 76.40058 | 9854 ft | 277 kts | 63° |
| 2026-05-05 04:54 | 28.38498 | 76.41981 | 9716 ft | 269 kts | 63° |
| 2026-05-05 04:55 | 28.39345 | 76.43902 | 9224 ft | 274 kts | 63° |
| 2026-05-05 04:55 | 28.40186 | 76.45815 | 8948 ft | 270 kts | 63° |
| 2026-05-05 04:55 | 28.41023 | 76.47718 | 8693 ft | 266 kts | 63° |
| 2026-05-05 04:55 | 28.41844 | 76.49584 | 8436 ft | 262 kts | 64° |
| 2026-05-05 04:56 | 28.42648 | 76.51414 | 8191 ft | 257 kts | 64° |
| 2026-05-05 04:56 | 28.43438 | 76.53212 | 7974 ft | 252 kts | 64° |
| 2026-05-05 04:56 | 28.44202 | 76.54951 | 7751 ft | 246 kts | 64° |
| 2026-05-05 04:56 | 28.44960 | 76.56678 | 7527 ft | 242 kts | 64° |
| 2026-05-05 04:57 | 28.45708 | 76.58384 | 7338 ft | 240 kts | 64° |
| 2026-05-05 04:57 | 28.46450 | 76.60078 | 7134 ft | 238 kts | 64° |
| 2026-05-05 04:57 | 28.47188 | 76.61762 | 6919 ft | 237 kts | 65° |
| 2026-05-05 04:57 | 28.47918 | 76.63429 | 6733 ft | 235 kts | 65° |
| 2026-05-05 04:58 | 28.48647 | 76.65094 | 6514 ft | 234 kts | 65° |
| 2026-05-05 04:58 | 28.49365 | 76.66732 | 6318 ft | 233 kts | 65° |
| 2026-05-05 04:58 | 28.50084 | 76.68377 | 6104 ft | 229 kts | 65° |
| 2026-05-05 04:58 | 28.50780 | 76.69967 | 5885 ft | 223 kts | 65° |
| 2026-05-05 04:59 | 28.51463 | 76.71525 | 5683 ft | 216 kts | 65° |
| 2026-05-05 04:59 | 28.52123 | 76.73023 | 5481 ft | 206 kts | 63° |
| 2026-05-05 04:59 | 28.52912 | 76.74385 | 5330 ft | 207 kts | 57° |
| 2026-05-05 04:59 | 28.53756 | 76.75699 | 5169 ft | 209 kts | 56° |
| 2026-05-05 05:00 | 28.54622 | 76.77043 | 4985 ft | 210 kts | 56° |
| 2026-05-05 05:00 | 28.55484 | 76.78386 | 4818 ft | 210 kts | 56° |
| 2026-05-05 05:00 | 28.56339 | 76.79729 | 4624 ft | 208 kts | 57° |
| 2026-05-05 05:00 | 28.57173 | 76.81047 | 4511 ft | 203 kts | 57° |
| 2026-05-05 05:01 | 28.58003 | 76.82361 | 4305 ft | 205 kts | 57° |
| 2026-05-05 05:01 | 28.58833 | 76.83679 | 4098 ft | 204 kts | 60° |
| 2026-05-05 05:01 | 28.59258 | 76.85134 | 3924 ft | 191 kts | 95° |
| 2026-05-05 05:01 | 28.59107 | 76.86640 | 3910 ft | 196 kts | 98° |
| 2026-05-05 05:02 | 28.58922 | 76.88203 | 3865 ft | 201 kts | 101° |
| 2026-05-05 05:02 | 28.58647 | 76.89756 | 3763 ft | 199 kts | 104° |
| 2026-05-05 05:02 | 28.58330 | 76.91287 | 3510 ft | 197 kts | 105° |
| 2026-05-05 05:02 | 28.58019 | 76.92749 | 3302 ft | 189 kts | 105° |
| 2026-05-05 05:03 | 28.57713 | 76.94176 | 3046 ft | 182 kts | 105° |
| 2026-05-05 05:03 | 28.57421 | 76.95542 | 2808 ft | 171 kts | 105° |
| 2026-05-05 05:03 | 28.57143 | 76.96838 | 2626 ft | 170 kts | 105° |
| 2026-05-05 05:03 | 28.56865 | 76.98142 | 2397 ft | 169 kts | 105° |
| 2026-05-05 05:04 | 28.56589 | 76.99433 | 2184 ft | 166 kts | 105° |
| 2026-05-05 05:04 | 28.56318 | 77.00703 | 1975 ft | 163 kts | 105° |
| 2026-05-05 05:04 | 28.56061 | 77.01911 | 1762 ft | 153 kts | 105° |
| 2026-05-05 05:04 | 28.55809 | 77.03083 | 1575 ft | 152 kts | 104° |
| 2026-05-05 05:05 | 28.55568 | 77.04212 | 1372 ft | 146 kts | 102° |
| 2026-05-05 05:05 | 28.55330 | 77.05332 | 1174 ft | 143 kts | 103° |
| 2026-05-05 05:05 | 28.55091 | 77.06442 | 999 ft | 145 kts | 103° |
| 2026-05-05 05:05 | 28.54851 | 77.07571 | 790 ft | 146 kts | 103° |
| 2026-05-05 05:06 | 28.54626 | 77.08632 | 750 ft | 119 kts | 103° |
| 2026-05-05 05:06 | 28.54473 | 77.09344 | 761 ft | 66 kts | 104° |
| 2026-05-05 05:06 | 28.54409 | 77.09638 | 760 ft | 5 kts | 104° |
| 2026-05-05 05:06 | 28.54408 | 77.09721 | 767 ft | 12 kts | 60° |
| 2026-05-05 05:07 | 28.54481 | 77.09764 | 767 ft | 12 kts | 17° |
| 2026-05-05 05:07 | 28.54560 | 77.09790 | 767 ft | 12 kts | 15° |
| 2026-05-05 05:07 | 28.54642 | 77.09795 | 755 ft | 12 kts | 336° |
| 2026-05-05 05:07 | 28.54680 | 77.09714 | 757 ft | 13 kts | 282° |
| 2026-05-05 05:08 | 28.54705 | 77.09612 | 758 ft | 14 kts | 284° |
| 2026-05-05 05:08 | 28.54729 | 77.09504 | 762 ft | 14 kts | 284° |
| 2026-05-05 05:08 | 28.54754 | 77.09397 | 756 ft | 14 kts | 285° |
| 2026-05-05 05:08 | 28.54785 | 77.09292 | 755 ft | 14 kts | 305° |
| 2026-05-05 05:09 | 28.54868 | 77.09227 | 753 ft | 15 kts | 328° |
| 2026-05-05 05:09 | 28.54962 | 77.09162 | 752 ft | 16 kts | 330° |
| 2026-05-05 05:09 | 28.55023 | 77.09123 | 751 ft | 7 kts | 330° |
| 2026-05-05 05:09 | 28.55055 | 77.09082 | 751 ft | 7 kts | 278° |
| 2026-05-05 05:10 | 28.55034 | 77.09028 | 749 ft | 8 kts | 240° |
| 2026-05-05 05:10 | 28.55020 | 77.09001 | 752 ft | 3 kts | 239° |
| 2026-05-05 05:10 | 28.55014 | 77.08991 | 753 ft | 0 kts | 239° |